<?xml version="1.0" encoding="UTF-8" standalone="no" ?>
<gpx xmlns="http://www.topografix.com/GPX/1/1" creator="MapSource 6.15.6" version="1.1" xmlns:xsi="http://www.w3.org/2001/XMLSchema-instance" xsi:schemaLocation="http://www.topografix.com/GPX/1/1 http://www.topografix.com/GPX/1/1/gpx.xsd">

  <metadata>
    <link href="http://www.garmin.com">
      <text>Garmin International</text>
    </link>
    <time>2009-07-13T14:01:51Z</time>
    <bounds maxlat="44.4792230" maxlon="-93.2045140" minlat="44.2913820" minlon="-93.4642310"/>
  </metadata>

  <trk>
    <name>090712_SundayDr</name>
    <extensions>
      <gpxx:TrackExtension xmlns:gpxx="http://www.garmin.com/xmlschemas/GpxExtensions/v3">
        <gpxx:DisplayColor>White</gpxx:DisplayColor>
      </gpxx:TrackExtension>
    </extensions>
    <trkseg>
      <trkpt lat="44.4709730" lon="-93.2939360">
        <ele>319.3000000</ele>
        <time>2009-07-12T15:35:39Z</time>
      </trkpt>
      <trkpt lat="44.4710250" lon="-93.2941640">
        <ele>316.4100000</ele>
        <time>2009-07-12T15:35:56Z</time>
      </trkpt>
      <trkpt lat="44.4712030" lon="-93.2945900">
        <ele>317.3700000</ele>
        <time>2009-07-12T15:36:06Z</time>
      </trkpt>
      <trkpt lat="44.4711720" lon="-93.2948530">
        <ele>317.8500000</ele>
        <time>2009-07-12T15:36:18Z</time>
      </trkpt>
      <trkpt lat="44.4711970" lon="-93.2953410">
        <ele>315.9300000</ele>
        <time>2009-07-12T15:36:29Z</time>
      </trkpt>
      <trkpt lat="44.4712860" lon="-93.2954840">
        <ele>317.3700000</ele>
        <time>2009-07-12T15:36:37Z</time>
      </trkpt>
      <trkpt lat="44.4715680" lon="-93.2954750">
        <ele>317.3700000</ele>
        <time>2009-07-12T15:36:46Z</time>
      </trkpt>
      <trkpt lat="44.4716180" lon="-93.2955760">
        <ele>317.3700000</ele>
        <time>2009-07-12T15:36:47Z</time>
      </trkpt>
      <trkpt lat="44.4716680" lon="-93.2955710">
        <ele>316.8900000</ele>
        <time>2009-07-12T15:36:48Z</time>
      </trkpt>
      <trkpt lat="44.4717260" lon="-93.2955640">
        <ele>317.3700000</ele>
        <time>2009-07-12T15:36:49Z</time>
      </trkpt>
      <trkpt lat="44.4717960" lon="-93.2956830">
        <ele>317.3700000</ele>
        <time>2009-07-12T15:36:50Z</time>
      </trkpt>
      <trkpt lat="44.4717940" lon="-93.2958000">
        <ele>317.8500000</ele>
        <time>2009-07-12T15:36:51Z</time>
      </trkpt>
      <trkpt lat="44.4717910" lon="-93.2959490">
        <ele>317.8500000</ele>
        <time>2009-07-12T15:36:52Z</time>
      </trkpt>
      <trkpt lat="44.4717870" lon="-93.2961290">
        <ele>318.3300000</ele>
        <time>2009-07-12T15:36:53Z</time>
      </trkpt>
      <trkpt lat="44.4717530" lon="-93.2978300">
        <ele>319.3000000</ele>
        <time>2009-07-12T15:37:01Z</time>
      </trkpt>
      <trkpt lat="44.4717060" lon="-93.3002230">
        <ele>320.7400000</ele>
        <time>2009-07-12T15:37:10Z</time>
      </trkpt>
      <trkpt lat="44.4717980" lon="-93.3044830">
        <ele>325.5400000</ele>
        <time>2009-07-12T15:37:24Z</time>
      </trkpt>
      <trkpt lat="44.4723240" lon="-93.3061630">
        <ele>325.5400000</ele>
        <time>2009-07-12T15:37:30Z</time>
      </trkpt>
      <trkpt lat="44.4733430" lon="-93.3075300">
        <ele>326.0200000</ele>
        <time>2009-07-12T15:37:36Z</time>
      </trkpt>
      <trkpt lat="44.4758640" lon="-93.3098300">
        <ele>325.5400000</ele>
        <time>2009-07-12T15:37:49Z</time>
      </trkpt>
      <trkpt lat="44.4780540" lon="-93.3121700">
        <ele>331.3100000</ele>
        <time>2009-07-12T15:38:01Z</time>
      </trkpt>
      <trkpt lat="44.4788650" lon="-93.3140530">
        <ele>333.7100000</ele>
        <time>2009-07-12T15:38:08Z</time>
      </trkpt>
      <trkpt lat="44.4792160" lon="-93.3161240">
        <ele>335.1600000</ele>
        <time>2009-07-12T15:38:15Z</time>
      </trkpt>
      <trkpt lat="44.4792230" lon="-93.3191060">
        <ele>338.5200000</ele>
        <time>2009-07-12T15:38:25Z</time>
      </trkpt>
      <trkpt lat="44.4792230" lon="-93.3228110">
        <ele>336.6000000</ele>
        <time>2009-07-12T15:38:39Z</time>
      </trkpt>
      <trkpt lat="44.4792230" lon="-93.3266140">
        <ele>328.4300000</ele>
        <time>2009-07-12T15:38:52Z</time>
      </trkpt>
      <trkpt lat="44.4792230" lon="-93.3325300">
        <ele>323.1400000</ele>
        <time>2009-07-12T15:39:12Z</time>
      </trkpt>
      <trkpt lat="44.4791970" lon="-93.3378900">
        <ele>323.1400000</ele>
        <time>2009-07-12T15:39:30Z</time>
      </trkpt>
      <trkpt lat="44.4791170" lon="-93.3413260">
        <ele>322.6600000</ele>
        <time>2009-07-12T15:39:42Z</time>
      </trkpt>
      <trkpt lat="44.4789520" lon="-93.3481240">
        <ele>322.6600000</ele>
        <time>2009-07-12T15:40:05Z</time>
      </trkpt>
      <trkpt lat="44.4789430" lon="-93.3539980">
        <ele>326.0200000</ele>
        <time>2009-07-12T15:40:26Z</time>
      </trkpt>
      <trkpt lat="44.4789990" lon="-93.3583060">
        <ele>334.6800000</ele>
        <time>2009-07-12T15:40:40Z</time>
      </trkpt>
      <trkpt lat="44.4790630" lon="-93.3631620">
        <ele>331.7900000</ele>
        <time>2009-07-12T15:40:55Z</time>
      </trkpt>
      <trkpt lat="44.4791190" lon="-93.3673920">
        <ele>323.1400000</ele>
        <time>2009-07-12T15:41:09Z</time>
      </trkpt>
      <trkpt lat="44.4791430" lon="-93.3692700">
        <ele>322.6600000</ele>
        <time>2009-07-12T15:41:18Z</time>
      </trkpt>
      <trkpt lat="44.4791640" lon="-93.3711880">
        <ele>323.6200000</ele>
        <time>2009-07-12T15:41:29Z</time>
      </trkpt>
      <trkpt lat="44.4791700" lon="-93.3717180">
        <ele>323.6200000</ele>
        <time>2009-07-12T15:41:35Z</time>
      </trkpt>
      <trkpt lat="44.4791780" lon="-93.3724840">
        <ele>324.1000000</ele>
        <time>2009-07-12T15:41:42Z</time>
      </trkpt>
      <trkpt lat="44.4791790" lon="-93.3725700">
        <ele>324.5800000</ele>
        <time>2009-07-12T15:41:43Z</time>
      </trkpt>
      <trkpt lat="44.4791800" lon="-93.3726230">
        <ele>324.1000000</ele>
        <time>2009-07-12T15:41:44Z</time>
      </trkpt>
      <trkpt lat="44.4790200" lon="-93.3726300">
        <ele>325.0600000</ele>
        <time>2009-07-12T15:41:45Z</time>
      </trkpt>
      <trkpt lat="44.4789380" lon="-93.3726290">
        <ele>326.5000000</ele>
        <time>2009-07-12T15:41:46Z</time>
      </trkpt>
      <trkpt lat="44.4788370" lon="-93.3726280">
        <ele>327.4700000</ele>
        <time>2009-07-12T15:41:47Z</time>
      </trkpt>
      <trkpt lat="44.4787200" lon="-93.3726270">
        <ele>328.4300000</ele>
        <time>2009-07-12T15:41:48Z</time>
      </trkpt>
      <trkpt lat="44.4776660" lon="-93.3726150">
        <ele>335.1600000</ele>
        <time>2009-07-12T15:41:55Z</time>
      </trkpt>
      <trkpt lat="44.4753280" lon="-93.3725870">
        <ele>339.0000000</ele>
        <time>2009-07-12T15:42:07Z</time>
      </trkpt>
      <trkpt lat="44.4723140" lon="-93.3725530">
        <ele>339.0000000</ele>
        <time>2009-07-12T15:42:23Z</time>
      </trkpt>
      <trkpt lat="44.4696260" lon="-93.3725460">
        <ele>340.4400000</ele>
        <time>2009-07-12T15:42:37Z</time>
      </trkpt>
      <trkpt lat="44.4681980" lon="-93.3725460">
        <ele>343.3300000</ele>
        <time>2009-07-12T15:42:47Z</time>
      </trkpt>
      <trkpt lat="44.4672120" lon="-93.3725460">
        <ele>343.8100000</ele>
        <time>2009-07-12T15:42:55Z</time>
      </trkpt>
      <trkpt lat="44.4659180" lon="-93.3725460">
        <ele>345.7300000</ele>
        <time>2009-07-12T15:43:04Z</time>
      </trkpt>
      <trkpt lat="44.4646030" lon="-93.3725460">
        <ele>348.6200000</ele>
        <time>2009-07-12T15:43:13Z</time>
      </trkpt>
      <trkpt lat="44.4624160" lon="-93.3725840">
        <ele>347.1700000</ele>
        <time>2009-07-12T15:43:24Z</time>
      </trkpt>
      <trkpt lat="44.4592160" lon="-93.3726280">
        <ele>347.1700000</ele>
        <time>2009-07-12T15:43:39Z</time>
      </trkpt>
      <trkpt lat="44.4559170" lon="-93.3725960">
        <ele>353.4200000</ele>
        <time>2009-07-12T15:43:55Z</time>
      </trkpt>
      <trkpt lat="44.4518560" lon="-93.3725570">
        <ele>338.5200000</ele>
        <time>2009-07-12T15:44:14Z</time>
      </trkpt>
      <trkpt lat="44.4516240" lon="-93.3725550">
        <ele>337.0800000</ele>
        <time>2009-07-12T15:44:15Z</time>
      </trkpt>
      <trkpt lat="44.4513880" lon="-93.3725520">
        <ele>335.6400000</ele>
        <time>2009-07-12T15:44:16Z</time>
      </trkpt>
      <trkpt lat="44.4511490" lon="-93.3725500">
        <ele>334.2000000</ele>
        <time>2009-07-12T15:44:17Z</time>
      </trkpt>
      <trkpt lat="44.4509120" lon="-93.3725480">
        <ele>333.7100000</ele>
        <time>2009-07-12T15:44:18Z</time>
      </trkpt>
      <trkpt lat="44.4506050" lon="-93.3724800">
        <ele>333.2300000</ele>
        <time>2009-07-12T15:44:19Z</time>
      </trkpt>
      <trkpt lat="44.4502920" lon="-93.3720510">
        <ele>331.7900000</ele>
        <time>2009-07-12T15:44:20Z</time>
      </trkpt>
      <trkpt lat="44.4501350" lon="-93.3715160">
        <ele>330.8300000</ele>
        <time>2009-07-12T15:44:21Z</time>
      </trkpt>
      <trkpt lat="44.4501260" lon="-93.3711790">
        <ele>330.3500000</ele>
        <time>2009-07-12T15:44:22Z</time>
      </trkpt>
      <trkpt lat="44.4501260" lon="-93.3708890">
        <ele>329.8700000</ele>
        <time>2009-07-12T15:44:23Z</time>
      </trkpt>
      <trkpt lat="44.4501260" lon="-93.3705970">
        <ele>330.3500000</ele>
        <time>2009-07-12T15:44:24Z</time>
      </trkpt>
      <trkpt lat="44.4501260" lon="-93.3702880">
        <ele>329.8700000</ele>
        <time>2009-07-12T15:44:25Z</time>
      </trkpt>
      <trkpt lat="44.4501260" lon="-93.3699830">
        <ele>329.3900000</ele>
        <time>2009-07-12T15:44:26Z</time>
      </trkpt>
      <trkpt lat="44.4501260" lon="-93.3696750">
        <ele>328.9100000</ele>
        <time>2009-07-12T15:44:27Z</time>
      </trkpt>
      <trkpt lat="44.4501260" lon="-93.3693610">
        <ele>328.9100000</ele>
        <time>2009-07-12T15:44:28Z</time>
      </trkpt>
      <trkpt lat="44.4500450" lon="-93.3671160">
        <ele>326.0200000</ele>
        <time>2009-07-12T15:44:35Z</time>
      </trkpt>
      <trkpt lat="44.4499390" lon="-93.3668230">
        <ele>325.0600000</ele>
        <time>2009-07-12T15:44:36Z</time>
      </trkpt>
      <trkpt lat="44.4497990" lon="-93.3665790">
        <ele>324.5800000</ele>
        <time>2009-07-12T15:44:37Z</time>
      </trkpt>
      <trkpt lat="44.4496580" lon="-93.3663330">
        <ele>324.1000000</ele>
        <time>2009-07-12T15:44:38Z</time>
      </trkpt>
      <trkpt lat="44.4495170" lon="-93.3660890">
        <ele>323.6200000</ele>
        <time>2009-07-12T15:44:39Z</time>
      </trkpt>
      <trkpt lat="44.4478990" lon="-93.3634820">
        <ele>316.8900000</ele>
        <time>2009-07-12T15:44:51Z</time>
      </trkpt>
      <trkpt lat="44.4469430" lon="-93.3612980">
        <ele>315.4500000</ele>
        <time>2009-07-12T15:45:00Z</time>
      </trkpt>
      <trkpt lat="44.4460850" lon="-93.3587360">
        <ele>309.2000000</ele>
        <time>2009-07-12T15:45:10Z</time>
      </trkpt>
      <trkpt lat="44.4456720" lon="-93.3575580">
        <ele>307.7600000</ele>
        <time>2009-07-12T15:45:15Z</time>
      </trkpt>
      <trkpt lat="44.4456780" lon="-93.3573080">
        <ele>307.2800000</ele>
        <time>2009-07-12T15:45:16Z</time>
      </trkpt>
      <trkpt lat="44.4456990" lon="-93.3570720">
        <ele>307.7600000</ele>
        <time>2009-07-12T15:45:17Z</time>
      </trkpt>
      <trkpt lat="44.4457200" lon="-93.3568340">
        <ele>307.7600000</ele>
        <time>2009-07-12T15:45:18Z</time>
      </trkpt>
      <trkpt lat="44.4457400" lon="-93.3565930">
        <ele>308.2400000</ele>
        <time>2009-07-12T15:45:19Z</time>
      </trkpt>
      <trkpt lat="44.4457770" lon="-93.3563670">
        <ele>308.2400000</ele>
        <time>2009-07-12T15:45:20Z</time>
      </trkpt>
      <trkpt lat="44.4458260" lon="-93.3561380">
        <ele>308.2400000</ele>
        <time>2009-07-12T15:45:21Z</time>
      </trkpt>
      <trkpt lat="44.4464370" lon="-93.3532260">
        <ele>316.8900000</ele>
        <time>2009-07-12T15:45:34Z</time>
      </trkpt>
      <trkpt lat="44.4467500" lon="-93.3509740">
        <ele>321.2200000</ele>
        <time>2009-07-12T15:45:45Z</time>
      </trkpt>
      <trkpt lat="44.4462590" lon="-93.3494990">
        <ele>318.3300000</ele>
        <time>2009-07-12T15:45:52Z</time>
      </trkpt>
      <trkpt lat="44.4454970" lon="-93.3483560">
        <ele>317.8500000</ele>
        <time>2009-07-12T15:45:58Z</time>
      </trkpt>
      <trkpt lat="44.4453320" lon="-93.3482420">
        <ele>317.8500000</ele>
        <time>2009-07-12T15:45:59Z</time>
      </trkpt>
      <trkpt lat="44.4441700" lon="-93.3474390">
        <ele>322.6600000</ele>
        <time>2009-07-12T15:46:07Z</time>
      </trkpt>
      <trkpt lat="44.4428470" lon="-93.3463840">
        <ele>328.9100000</ele>
        <time>2009-07-12T15:46:16Z</time>
      </trkpt>
      <trkpt lat="44.4427020" lon="-93.3462390">
        <ele>329.8700000</ele>
        <time>2009-07-12T15:46:17Z</time>
      </trkpt>
      <trkpt lat="44.4415700" lon="-93.3443880">
        <ele>332.2700000</ele>
        <time>2009-07-12T15:46:26Z</time>
      </trkpt>
      <trkpt lat="44.4401110" lon="-93.3421820">
        <ele>329.3900000</ele>
        <time>2009-07-12T15:46:36Z</time>
      </trkpt>
      <trkpt lat="44.4388890" lon="-93.3421390">
        <ele>325.0600000</ele>
        <time>2009-07-12T15:46:42Z</time>
      </trkpt>
      <trkpt lat="44.4359730" lon="-93.3421890">
        <ele>320.7400000</ele>
        <time>2009-07-12T15:46:56Z</time>
      </trkpt>
      <trkpt lat="44.4332980" lon="-93.3422330">
        <ele>328.4300000</ele>
        <time>2009-07-12T15:47:10Z</time>
      </trkpt>
      <trkpt lat="44.4323510" lon="-93.3422510">
        <ele>333.2300000</ele>
        <time>2009-07-12T15:47:17Z</time>
      </trkpt>
      <trkpt lat="44.4319890" lon="-93.3423720">
        <ele>332.2700000</ele>
        <time>2009-07-12T15:47:24Z</time>
      </trkpt>
      <trkpt lat="44.4318360" lon="-93.3425200">
        <ele>330.8300000</ele>
        <time>2009-07-12T15:47:33Z</time>
      </trkpt>
      <trkpt lat="44.4314170" lon="-93.3432740">
        <ele>332.7500000</ele>
        <time>2009-07-12T15:47:44Z</time>
      </trkpt>
      <trkpt lat="44.4313480" lon="-93.3434120">
        <ele>332.7500000</ele>
        <time>2009-07-12T15:47:48Z</time>
      </trkpt>
      <trkpt lat="44.4313290" lon="-93.3434500">
        <ele>332.7500000</ele>
        <time>2009-07-12T15:47:49Z</time>
      </trkpt>
      <trkpt lat="44.4313710" lon="-93.3435050">
        <ele>332.2700000</ele>
        <time>2009-07-12T15:47:50Z</time>
      </trkpt>
      <trkpt lat="44.4314260" lon="-93.3435780">
        <ele>332.7500000</ele>
        <time>2009-07-12T15:47:51Z</time>
      </trkpt>
      <trkpt lat="44.4314920" lon="-93.3436660">
        <ele>332.7500000</ele>
        <time>2009-07-12T15:47:52Z</time>
      </trkpt>
      <trkpt lat="44.4319110" lon="-93.3447030">
        <ele>330.8300000</ele>
        <time>2009-07-12T15:47:58Z</time>
      </trkpt>
      <trkpt lat="44.4319530" lon="-93.3449270">
        <ele>330.3500000</ele>
        <time>2009-07-12T15:47:59Z</time>
      </trkpt>
      <trkpt lat="44.4319890" lon="-93.3451600">
        <ele>329.3900000</ele>
        <time>2009-07-12T15:48:00Z</time>
      </trkpt>
      <trkpt lat="44.4320120" lon="-93.3454150">
        <ele>328.9100000</ele>
        <time>2009-07-12T15:48:01Z</time>
      </trkpt>
      <trkpt lat="44.4319990" lon="-93.3456720">
        <ele>327.9500000</ele>
        <time>2009-07-12T15:48:02Z</time>
      </trkpt>
      <trkpt lat="44.4319850" lon="-93.3459370">
        <ele>326.9900000</ele>
        <time>2009-07-12T15:48:03Z</time>
      </trkpt>
      <trkpt lat="44.4318000" lon="-93.3495770">
        <ele>323.6200000</ele>
        <time>2009-07-12T15:48:16Z</time>
      </trkpt>
      <trkpt lat="44.4317220" lon="-93.3534130">
        <ele>323.1400000</ele>
        <time>2009-07-12T15:48:29Z</time>
      </trkpt>
      <trkpt lat="44.4321480" lon="-93.3589900">
        <ele>326.5000000</ele>
        <time>2009-07-12T15:48:47Z</time>
      </trkpt>
      <trkpt lat="44.4323190" lon="-93.3612470">
        <ele>326.9900000</ele>
        <time>2009-07-12T15:48:56Z</time>
      </trkpt>
      <trkpt lat="44.4323960" lon="-93.3622540">
        <ele>326.9900000</ele>
        <time>2009-07-12T15:49:02Z</time>
      </trkpt>
      <trkpt lat="44.4324010" lon="-93.3623200">
        <ele>326.9900000</ele>
        <time>2009-07-12T15:49:03Z</time>
      </trkpt>
      <trkpt lat="44.4323240" lon="-93.3623340">
        <ele>326.5000000</ele>
        <time>2009-07-12T15:49:04Z</time>
      </trkpt>
      <trkpt lat="44.4322380" lon="-93.3623340">
        <ele>326.5000000</ele>
        <time>2009-07-12T15:49:05Z</time>
      </trkpt>
      <trkpt lat="44.4321530" lon="-93.3623350">
        <ele>326.5000000</ele>
        <time>2009-07-12T15:49:06Z</time>
      </trkpt>
      <trkpt lat="44.4320400" lon="-93.3623370">
        <ele>326.0200000</ele>
        <time>2009-07-12T15:49:07Z</time>
      </trkpt>
      <trkpt lat="44.4319040" lon="-93.3623380">
        <ele>326.0200000</ele>
        <time>2009-07-12T15:49:08Z</time>
      </trkpt>
      <trkpt lat="44.4306910" lon="-93.3623520">
        <ele>320.7400000</ele>
        <time>2009-07-12T15:49:15Z</time>
      </trkpt>
      <trkpt lat="44.4278640" lon="-93.3625580">
        <ele>317.3700000</ele>
        <time>2009-07-12T15:49:31Z</time>
      </trkpt>
      <trkpt lat="44.4269760" lon="-93.3633680">
        <ele>318.3300000</ele>
        <time>2009-07-12T15:49:37Z</time>
      </trkpt>
      <trkpt lat="44.4248040" lon="-93.3659110">
        <ele>318.3300000</ele>
        <time>2009-07-12T15:49:53Z</time>
      </trkpt>
      <trkpt lat="44.4237580" lon="-93.3666610">
        <ele>313.0500000</ele>
        <time>2009-07-12T15:50:00Z</time>
      </trkpt>
      <trkpt lat="44.4225040" lon="-93.3666210">
        <ele>314.9700000</ele>
        <time>2009-07-12T15:50:07Z</time>
      </trkpt>
      <trkpt lat="44.4206460" lon="-93.3664040">
        <ele>318.8100000</ele>
        <time>2009-07-12T15:50:18Z</time>
      </trkpt>
      <trkpt lat="44.4192580" lon="-93.3658510">
        <ele>326.0200000</ele>
        <time>2009-07-12T15:50:27Z</time>
      </trkpt>
      <trkpt lat="44.4184420" lon="-93.3647430">
        <ele>331.3100000</ele>
        <time>2009-07-12T15:50:34Z</time>
      </trkpt>
      <trkpt lat="44.4173460" lon="-93.3634310">
        <ele>329.3900000</ele>
        <time>2009-07-12T15:50:42Z</time>
      </trkpt>
      <trkpt lat="44.4171640" lon="-93.3633390">
        <ele>328.9100000</ele>
        <time>2009-07-12T15:50:43Z</time>
      </trkpt>
      <trkpt lat="44.4151780" lon="-93.3624610">
        <ele>318.3300000</ele>
        <time>2009-07-12T15:50:53Z</time>
      </trkpt>
      <trkpt lat="44.4134820" lon="-93.3624610">
        <ele>323.6200000</ele>
        <time>2009-07-12T15:51:01Z</time>
      </trkpt>
      <trkpt lat="44.4096490" lon="-93.3624610">
        <ele>343.3300000</ele>
        <time>2009-07-12T15:51:21Z</time>
      </trkpt>
      <trkpt lat="44.4069000" lon="-93.3624620">
        <ele>340.9200000</ele>
        <time>2009-07-12T15:51:34Z</time>
      </trkpt>
      <trkpt lat="44.4022840" lon="-93.3624890">
        <ele>340.9200000</ele>
        <time>2009-07-12T15:51:54Z</time>
      </trkpt>
      <trkpt lat="44.3971280" lon="-93.3625420">
        <ele>340.9200000</ele>
        <time>2009-07-12T15:52:16Z</time>
      </trkpt>
      <trkpt lat="44.3917690" lon="-93.3626210">
        <ele>333.7100000</ele>
        <time>2009-07-12T15:52:38Z</time>
      </trkpt>
      <trkpt lat="44.3880420" lon="-93.3626750">
        <ele>330.3500000</ele>
        <time>2009-07-12T15:52:54Z</time>
      </trkpt>
      <trkpt lat="44.3878020" lon="-93.3627220">
        <ele>328.9100000</ele>
        <time>2009-07-12T15:52:55Z</time>
      </trkpt>
      <trkpt lat="44.3875640" lon="-93.3628060">
        <ele>327.9500000</ele>
        <time>2009-07-12T15:52:56Z</time>
      </trkpt>
      <trkpt lat="44.3873340" lon="-93.3629390">
        <ele>326.9900000</ele>
        <time>2009-07-12T15:52:57Z</time>
      </trkpt>
      <trkpt lat="44.3871230" lon="-93.3631200">
        <ele>325.5400000</ele>
        <time>2009-07-12T15:52:58Z</time>
      </trkpt>
      <trkpt lat="44.3869360" lon="-93.3633440">
        <ele>324.5800000</ele>
        <time>2009-07-12T15:52:59Z</time>
      </trkpt>
      <trkpt lat="44.3867690" lon="-93.3635880">
        <ele>323.6200000</ele>
        <time>2009-07-12T15:53:00Z</time>
      </trkpt>
      <trkpt lat="44.3865880" lon="-93.3638530">
        <ele>323.6200000</ele>
        <time>2009-07-12T15:53:01Z</time>
      </trkpt>
      <trkpt lat="44.3864350" lon="-93.3641180">
        <ele>323.1400000</ele>
        <time>2009-07-12T15:53:02Z</time>
      </trkpt>
      <trkpt lat="44.3863130" lon="-93.3644030">
        <ele>323.1400000</ele>
        <time>2009-07-12T15:53:03Z</time>
      </trkpt>
      <trkpt lat="44.3862000" lon="-93.3646880">
        <ele>322.6600000</ele>
        <time>2009-07-12T15:53:04Z</time>
      </trkpt>
      <trkpt lat="44.3861120" lon="-93.3649710">
        <ele>322.6600000</ele>
        <time>2009-07-12T15:53:05Z</time>
      </trkpt>
      <trkpt lat="44.3853590" lon="-93.3667840">
        <ele>322.6600000</ele>
        <time>2009-07-12T15:53:13Z</time>
      </trkpt>
      <trkpt lat="44.3849320" lon="-93.3672630">
        <ele>322.6600000</ele>
        <time>2009-07-12T15:53:16Z</time>
      </trkpt>
      <trkpt lat="44.3847870" lon="-93.3673860">
        <ele>322.6600000</ele>
        <time>2009-07-12T15:53:17Z</time>
      </trkpt>
      <trkpt lat="44.3846120" lon="-93.3674740">
        <ele>322.1800000</ele>
        <time>2009-07-12T15:53:18Z</time>
      </trkpt>
      <trkpt lat="44.3844320" lon="-93.3675470">
        <ele>322.1800000</ele>
        <time>2009-07-12T15:53:19Z</time>
      </trkpt>
      <trkpt lat="44.3842380" lon="-93.3676030">
        <ele>322.1800000</ele>
        <time>2009-07-12T15:53:20Z</time>
      </trkpt>
      <trkpt lat="44.3840350" lon="-93.3676610">
        <ele>321.7000000</ele>
        <time>2009-07-12T15:53:21Z</time>
      </trkpt>
      <trkpt lat="44.3838360" lon="-93.3676980">
        <ele>321.7000000</ele>
        <time>2009-07-12T15:53:22Z</time>
      </trkpt>
      <trkpt lat="44.3836260" lon="-93.3677010">
        <ele>321.7000000</ele>
        <time>2009-07-12T15:53:23Z</time>
      </trkpt>
      <trkpt lat="44.3806660" lon="-93.3677370">
        <ele>323.6200000</ele>
        <time>2009-07-12T15:53:36Z</time>
      </trkpt>
      <trkpt lat="44.3799610" lon="-93.3676510">
        <ele>325.0600000</ele>
        <time>2009-07-12T15:53:39Z</time>
      </trkpt>
      <trkpt lat="44.3797240" lon="-93.3675990">
        <ele>325.5400000</ele>
        <time>2009-07-12T15:53:40Z</time>
      </trkpt>
      <trkpt lat="44.3795020" lon="-93.3674760">
        <ele>325.0600000</ele>
        <time>2009-07-12T15:53:41Z</time>
      </trkpt>
      <trkpt lat="44.3792880" lon="-93.3673250">
        <ele>325.5400000</ele>
        <time>2009-07-12T15:53:42Z</time>
      </trkpt>
      <trkpt lat="44.3790970" lon="-93.3671320">
        <ele>326.0200000</ele>
        <time>2009-07-12T15:53:43Z</time>
      </trkpt>
      <trkpt lat="44.3789310" lon="-93.3668950">
        <ele>326.5000000</ele>
        <time>2009-07-12T15:53:44Z</time>
      </trkpt>
      <trkpt lat="44.3788010" lon="-93.3667100">
        <ele>326.9900000</ele>
        <time>2009-07-12T15:53:45Z</time>
      </trkpt>
      <trkpt lat="44.3788010" lon="-93.3667100">
        <ele>326.5000000</ele>
        <time>2009-07-12T15:53:46Z</time>
      </trkpt>
      <trkpt lat="44.3785160" lon="-93.3661250">
        <ele>326.5000000</ele>
        <time>2009-07-12T15:53:47Z</time>
      </trkpt>
      <trkpt lat="44.3783990" lon="-93.3658350">
        <ele>326.5000000</ele>
        <time>2009-07-12T15:53:48Z</time>
      </trkpt>
      <trkpt lat="44.3782860" lon="-93.3655510">
        <ele>326.5000000</ele>
        <time>2009-07-12T15:53:49Z</time>
      </trkpt>
      <trkpt lat="44.3782130" lon="-93.3652270">
        <ele>326.5000000</ele>
        <time>2009-07-12T15:53:50Z</time>
      </trkpt>
      <trkpt lat="44.3781390" lon="-93.3648990">
        <ele>326.5000000</ele>
        <time>2009-07-12T15:53:51Z</time>
      </trkpt>
      <trkpt lat="44.3776780" lon="-93.3628800">
        <ele>322.1800000</ele>
        <time>2009-07-12T15:53:57Z</time>
      </trkpt>
      <trkpt lat="44.3769550" lon="-93.3618790">
        <ele>323.1400000</ele>
        <time>2009-07-12T15:54:01Z</time>
      </trkpt>
      <trkpt lat="44.3767550" lon="-93.3616610">
        <ele>324.1000000</ele>
        <time>2009-07-12T15:54:02Z</time>
      </trkpt>
      <trkpt lat="44.3755650" lon="-93.3602340">
        <ele>327.9500000</ele>
        <time>2009-07-12T15:54:09Z</time>
      </trkpt>
      <trkpt lat="44.3754460" lon="-93.3599870">
        <ele>327.4700000</ele>
        <time>2009-07-12T15:54:10Z</time>
      </trkpt>
      <trkpt lat="44.3738120" lon="-93.3565970">
        <ele>332.7500000</ele>
        <time>2009-07-12T15:54:24Z</time>
      </trkpt>
      <trkpt lat="44.3721320" lon="-93.3531130">
        <ele>325.5400000</ele>
        <time>2009-07-12T15:54:40Z</time>
      </trkpt>
      <trkpt lat="44.3716360" lon="-93.3520830">
        <ele>325.5400000</ele>
        <time>2009-07-12T15:54:47Z</time>
      </trkpt>
      <trkpt lat="44.3715970" lon="-93.3520020">
        <ele>325.0600000</ele>
        <time>2009-07-12T15:54:48Z</time>
      </trkpt>
      <trkpt lat="44.3715680" lon="-93.3519370">
        <ele>326.0200000</ele>
        <time>2009-07-12T15:54:49Z</time>
      </trkpt>
      <trkpt lat="44.3714600" lon="-93.3520800">
        <ele>326.9900000</ele>
        <time>2009-07-12T15:54:50Z</time>
      </trkpt>
      <trkpt lat="44.3713660" lon="-93.3521450">
        <ele>327.4700000</ele>
        <time>2009-07-12T15:54:51Z</time>
      </trkpt>
      <trkpt lat="44.3712800" lon="-93.3522040">
        <ele>327.4700000</ele>
        <time>2009-07-12T15:54:52Z</time>
      </trkpt>
      <trkpt lat="44.3711900" lon="-93.3522660">
        <ele>327.9500000</ele>
        <time>2009-07-12T15:54:53Z</time>
      </trkpt>
      <trkpt lat="44.3702470" lon="-93.3527330">
        <ele>332.2700000</ele>
        <time>2009-07-12T15:55:01Z</time>
      </trkpt>
      <trkpt lat="44.3690040" lon="-93.3527870">
        <ele>335.1600000</ele>
        <time>2009-07-12T15:55:08Z</time>
      </trkpt>
      <trkpt lat="44.3681430" lon="-93.3528050">
        <ele>335.1600000</ele>
        <time>2009-07-12T15:55:14Z</time>
      </trkpt>
      <trkpt lat="44.3661750" lon="-93.3528470">
        <ele>337.5600000</ele>
        <time>2009-07-12T15:55:28Z</time>
      </trkpt>
      <trkpt lat="44.3636890" lon="-93.3529630">
        <ele>345.2500000</ele>
        <time>2009-07-12T15:55:42Z</time>
      </trkpt>
      <trkpt lat="44.3625070" lon="-93.3534990">
        <ele>344.2900000</ele>
        <time>2009-07-12T15:55:49Z</time>
      </trkpt>
      <trkpt lat="44.3611710" lon="-93.3546460">
        <ele>343.8100000</ele>
        <time>2009-07-12T15:55:59Z</time>
      </trkpt>
      <trkpt lat="44.3598250" lon="-93.3558800">
        <ele>344.7700000</ele>
        <time>2009-07-12T15:56:11Z</time>
      </trkpt>
      <trkpt lat="44.3594510" lon="-93.3562230">
        <ele>343.8100000</ele>
        <time>2009-07-12T15:56:17Z</time>
      </trkpt>
      <trkpt lat="44.3590980" lon="-93.3565470">
        <ele>341.8900000</ele>
        <time>2009-07-12T15:56:29Z</time>
      </trkpt>
      <trkpt lat="44.3590620" lon="-93.3565800">
        <ele>341.8900000</ele>
        <time>2009-07-12T15:56:30Z</time>
      </trkpt>
      <trkpt lat="44.3591130" lon="-93.3567050">
        <ele>341.4100000</ele>
        <time>2009-07-12T15:56:31Z</time>
      </trkpt>
      <trkpt lat="44.3591510" lon="-93.3567910">
        <ele>340.9200000</ele>
        <time>2009-07-12T15:56:32Z</time>
      </trkpt>
      <trkpt lat="44.3592000" lon="-93.3569050">
        <ele>340.9200000</ele>
        <time>2009-07-12T15:56:33Z</time>
      </trkpt>
      <trkpt lat="44.3592630" lon="-93.3570490">
        <ele>340.9200000</ele>
        <time>2009-07-12T15:56:34Z</time>
      </trkpt>
      <trkpt lat="44.3597350" lon="-93.3584780">
        <ele>341.8900000</ele>
        <time>2009-07-12T15:56:41Z</time>
      </trkpt>
      <trkpt lat="44.3603120" lon="-93.3608660">
        <ele>341.8900000</ele>
        <time>2009-07-12T15:56:50Z</time>
      </trkpt>
      <trkpt lat="44.3610200" lon="-93.3643260">
        <ele>340.9200000</ele>
        <time>2009-07-12T15:57:01Z</time>
      </trkpt>
      <trkpt lat="44.3610740" lon="-93.3670180">
        <ele>342.3700000</ele>
        <time>2009-07-12T15:57:09Z</time>
      </trkpt>
      <trkpt lat="44.3605910" lon="-93.3733310">
        <ele>339.9600000</ele>
        <time>2009-07-12T15:57:28Z</time>
      </trkpt>
      <trkpt lat="44.3602120" lon="-93.3796720">
        <ele>344.2900000</ele>
        <time>2009-07-12T15:57:47Z</time>
      </trkpt>
      <trkpt lat="44.3604810" lon="-93.3813420">
        <ele>344.2900000</ele>
        <time>2009-07-12T15:57:53Z</time>
      </trkpt>
      <trkpt lat="44.3611820" lon="-93.3830450">
        <ele>339.0000000</ele>
        <time>2009-07-12T15:58:01Z</time>
      </trkpt>
      <trkpt lat="44.3624930" lon="-93.3850940">
        <ele>332.7500000</ele>
        <time>2009-07-12T15:58:11Z</time>
      </trkpt>
      <trkpt lat="44.3632660" lon="-93.3868370">
        <ele>334.6800000</ele>
        <time>2009-07-12T15:58:19Z</time>
      </trkpt>
      <trkpt lat="44.3643190" lon="-93.3904120">
        <ele>336.6000000</ele>
        <time>2009-07-12T15:58:33Z</time>
      </trkpt>
      <trkpt lat="44.3648560" lon="-93.3924450">
        <ele>340.9200000</ele>
        <time>2009-07-12T15:58:43Z</time>
      </trkpt>
      <trkpt lat="44.3649640" lon="-93.3943740">
        <ele>339.9600000</ele>
        <time>2009-07-12T15:58:53Z</time>
      </trkpt>
      <trkpt lat="44.3647360" lon="-93.3962910">
        <ele>343.3300000</ele>
        <time>2009-07-12T15:59:04Z</time>
      </trkpt>
      <trkpt lat="44.3646610" lon="-93.3979440">
        <ele>345.7300000</ele>
        <time>2009-07-12T15:59:15Z</time>
      </trkpt>
      <trkpt lat="44.3648530" lon="-93.4001170">
        <ele>346.2100000</ele>
        <time>2009-07-12T15:59:25Z</time>
      </trkpt>
      <trkpt lat="44.3653740" lon="-93.4037250">
        <ele>341.8900000</ele>
        <time>2009-07-12T15:59:40Z</time>
      </trkpt>
      <trkpt lat="44.3659000" lon="-93.4050180">
        <ele>338.5200000</ele>
        <time>2009-07-12T15:59:47Z</time>
      </trkpt>
      <trkpt lat="44.3661930" lon="-93.4054770">
        <ele>337.0800000</ele>
        <time>2009-07-12T15:59:51Z</time>
      </trkpt>
      <trkpt lat="44.3661410" lon="-93.4055990">
        <ele>336.6000000</ele>
        <time>2009-07-12T15:59:52Z</time>
      </trkpt>
      <trkpt lat="44.3661410" lon="-93.4057260">
        <ele>336.1200000</ele>
        <time>2009-07-12T15:59:53Z</time>
      </trkpt>
      <trkpt lat="44.3661410" lon="-93.4058590">
        <ele>336.6000000</ele>
        <time>2009-07-12T15:59:54Z</time>
      </trkpt>
      <trkpt lat="44.3661410" lon="-93.4060010">
        <ele>337.5600000</ele>
        <time>2009-07-12T15:59:55Z</time>
      </trkpt>
      <trkpt lat="44.3661410" lon="-93.4073790">
        <ele>342.3700000</ele>
        <time>2009-07-12T16:00:05Z</time>
      </trkpt>
      <trkpt lat="44.3661410" lon="-93.4074370">
        <ele>342.3700000</ele>
        <time>2009-07-12T16:00:06Z</time>
      </trkpt>
      <trkpt lat="44.3661410" lon="-93.4074590">
        <ele>342.3700000</ele>
        <time>2009-07-12T16:00:07Z</time>
      </trkpt>
      <trkpt lat="44.3661410" lon="-93.4074590">
        <ele>341.8900000</ele>
        <time>2009-07-12T16:00:08Z</time>
      </trkpt>
      <trkpt lat="44.3661410" lon="-93.4074590">
        <ele>341.4100000</ele>
        <time>2009-07-12T16:00:09Z</time>
      </trkpt>
      <trkpt lat="44.3661410" lon="-93.4077540">
        <ele>342.3700000</ele>
        <time>2009-07-12T16:00:24Z</time>
      </trkpt>
      <trkpt lat="44.3661410" lon="-93.4081450">
        <ele>339.0000000</ele>
        <time>2009-07-12T16:00:36Z</time>
      </trkpt>
      <trkpt lat="44.3661410" lon="-93.4084990">
        <ele>339.9600000</ele>
        <time>2009-07-12T16:00:48Z</time>
      </trkpt>
      <trkpt lat="44.3661410" lon="-93.4085730">
        <ele>339.9600000</ele>
        <time>2009-07-12T16:00:50Z</time>
      </trkpt>
      <trkpt lat="44.3659960" lon="-93.4086180">
        <ele>340.4400000</ele>
        <time>2009-07-12T16:00:51Z</time>
      </trkpt>
      <trkpt lat="44.3659410" lon="-93.4086260">
        <ele>341.4100000</ele>
        <time>2009-07-12T16:00:52Z</time>
      </trkpt>
      <trkpt lat="44.3655000" lon="-93.4087440">
        <ele>347.1700000</ele>
        <time>2009-07-12T16:00:58Z</time>
      </trkpt>
      <trkpt lat="44.3654170" lon="-93.4088060">
        <ele>347.6500000</ele>
        <time>2009-07-12T16:00:59Z</time>
      </trkpt>
      <trkpt lat="44.3653690" lon="-93.4088930">
        <ele>348.6200000</ele>
        <time>2009-07-12T16:01:00Z</time>
      </trkpt>
      <trkpt lat="44.3653120" lon="-93.4090080">
        <ele>349.5800000</ele>
        <time>2009-07-12T16:01:01Z</time>
      </trkpt>
      <trkpt lat="44.3652530" lon="-93.4091270">
        <ele>350.0600000</ele>
        <time>2009-07-12T16:01:02Z</time>
      </trkpt>
      <trkpt lat="44.3652400" lon="-93.4091530">
        <ele>350.5400000</ele>
        <time>2009-07-12T16:01:03Z</time>
      </trkpt>
      <trkpt lat="44.3651620" lon="-93.4093850">
        <ele>351.0200000</ele>
        <time>2009-07-12T16:01:04Z</time>
      </trkpt>
      <trkpt lat="44.3645020" lon="-93.4115360">
        <ele>351.5000000</ele>
        <time>2009-07-12T16:01:17Z</time>
      </trkpt>
      <trkpt lat="44.3637740" lon="-93.4129250">
        <ele>350.5400000</ele>
        <time>2009-07-12T16:01:27Z</time>
      </trkpt>
      <trkpt lat="44.3628230" lon="-93.4137560">
        <ele>351.9800000</ele>
        <time>2009-07-12T16:01:35Z</time>
      </trkpt>
      <trkpt lat="44.3610280" lon="-93.4152780">
        <ele>351.0200000</ele>
        <time>2009-07-12T16:01:46Z</time>
      </trkpt>
      <trkpt lat="44.3580910" lon="-93.4176330">
        <ele>351.9800000</ele>
        <time>2009-07-12T16:02:01Z</time>
      </trkpt>
      <trkpt lat="44.3555610" lon="-93.4199900">
        <ele>353.9000000</ele>
        <time>2009-07-12T16:02:14Z</time>
      </trkpt>
      <trkpt lat="44.3537070" lon="-93.4230350">
        <ele>358.2300000</ele>
        <time>2009-07-12T16:02:26Z</time>
      </trkpt>
      <trkpt lat="44.3525210" lon="-93.4245850">
        <ele>359.1900000</ele>
        <time>2009-07-12T16:02:34Z</time>
      </trkpt>
      <trkpt lat="44.3523440" lon="-93.4247030">
        <ele>359.1900000</ele>
        <time>2009-07-12T16:02:35Z</time>
      </trkpt>
      <trkpt lat="44.3521770" lon="-93.4247980">
        <ele>358.7100000</ele>
        <time>2009-07-12T16:02:36Z</time>
      </trkpt>
      <trkpt lat="44.3519940" lon="-93.4248710">
        <ele>358.2300000</ele>
        <time>2009-07-12T16:02:37Z</time>
      </trkpt>
      <trkpt lat="44.3518100" lon="-93.4249450">
        <ele>357.7500000</ele>
        <time>2009-07-12T16:02:38Z</time>
      </trkpt>
      <trkpt lat="44.3516320" lon="-93.4249810">
        <ele>357.2700000</ele>
        <time>2009-07-12T16:02:39Z</time>
      </trkpt>
      <trkpt lat="44.3514450" lon="-93.4250180">
        <ele>356.7900000</ele>
        <time>2009-07-12T16:02:40Z</time>
      </trkpt>
      <trkpt lat="44.3512710" lon="-93.4250260">
        <ele>356.3100000</ele>
        <time>2009-07-12T16:02:41Z</time>
      </trkpt>
      <trkpt lat="44.3510850" lon="-93.4250170">
        <ele>355.3400000</ele>
        <time>2009-07-12T16:02:42Z</time>
      </trkpt>
      <trkpt lat="44.3508950" lon="-93.4250070">
        <ele>355.3400000</ele>
        <time>2009-07-12T16:02:43Z</time>
      </trkpt>
      <trkpt lat="44.3482430" lon="-93.4249890">
        <ele>339.4800000</ele>
        <time>2009-07-12T16:02:57Z</time>
      </trkpt>
      <trkpt lat="44.3473300" lon="-93.4254930">
        <ele>337.0800000</ele>
        <time>2009-07-12T16:03:02Z</time>
      </trkpt>
      <trkpt lat="44.3471540" lon="-93.4256530">
        <ele>337.0800000</ele>
        <time>2009-07-12T16:03:03Z</time>
      </trkpt>
      <trkpt lat="44.3455800" lon="-93.4273820">
        <ele>338.0400000</ele>
        <time>2009-07-12T16:03:13Z</time>
      </trkpt>
      <trkpt lat="44.3442170" lon="-93.4289130">
        <ele>345.7300000</ele>
        <time>2009-07-12T16:03:23Z</time>
      </trkpt>
      <trkpt lat="44.3432670" lon="-93.4307450">
        <ele>349.1000000</ele>
        <time>2009-07-12T16:03:31Z</time>
      </trkpt>
      <trkpt lat="44.3418580" lon="-93.4342580">
        <ele>352.4600000</ele>
        <time>2009-07-12T16:03:45Z</time>
      </trkpt>
      <trkpt lat="44.3408620" lon="-93.4382380">
        <ele>352.9400000</ele>
        <time>2009-07-12T16:04:00Z</time>
      </trkpt>
      <trkpt lat="44.3406300" lon="-93.4403610">
        <ele>353.9000000</ele>
        <time>2009-07-12T16:04:08Z</time>
      </trkpt>
      <trkpt lat="44.3404650" lon="-93.4427410">
        <ele>357.2700000</ele>
        <time>2009-07-12T16:04:19Z</time>
      </trkpt>
      <trkpt lat="44.3401860" lon="-93.4443170">
        <ele>358.7100000</ele>
        <time>2009-07-12T16:04:27Z</time>
      </trkpt>
      <trkpt lat="44.3401090" lon="-93.4444910">
        <ele>358.7100000</ele>
        <time>2009-07-12T16:04:28Z</time>
      </trkpt>
      <trkpt lat="44.3400220" lon="-93.4446780">
        <ele>358.7100000</ele>
        <time>2009-07-12T16:04:29Z</time>
      </trkpt>
      <trkpt lat="44.3389550" lon="-93.4469670">
        <ele>360.1500000</ele>
        <time>2009-07-12T16:04:40Z</time>
      </trkpt>
      <trkpt lat="44.3377370" lon="-93.4492700">
        <ele>358.2300000</ele>
        <time>2009-07-12T16:04:51Z</time>
      </trkpt>
      <trkpt lat="44.3363290" lon="-93.4506280">
        <ele>351.0200000</ele>
        <time>2009-07-12T16:05:00Z</time>
      </trkpt>
      <trkpt lat="44.3346930" lon="-93.4515400">
        <ele>342.3700000</ele>
        <time>2009-07-12T16:05:09Z</time>
      </trkpt>
      <trkpt lat="44.3331240" lon="-93.4527860">
        <ele>344.7700000</ele>
        <time>2009-07-12T16:05:19Z</time>
      </trkpt>
      <trkpt lat="44.3317800" lon="-93.4545010">
        <ele>336.6000000</ele>
        <time>2009-07-12T16:05:29Z</time>
      </trkpt>
      <trkpt lat="44.3299190" lon="-93.4577250">
        <ele>335.1600000</ele>
        <time>2009-07-12T16:05:44Z</time>
      </trkpt>
      <trkpt lat="44.3284280" lon="-93.4596660">
        <ele>326.5000000</ele>
        <time>2009-07-12T16:05:54Z</time>
      </trkpt>
      <trkpt lat="44.3258940" lon="-93.4627840">
        <ele>339.0000000</ele>
        <time>2009-07-12T16:06:11Z</time>
      </trkpt>
      <trkpt lat="44.3252450" lon="-93.4634880">
        <ele>341.8900000</ele>
        <time>2009-07-12T16:06:15Z</time>
      </trkpt>
      <trkpt lat="44.3250530" lon="-93.4636000">
        <ele>341.8900000</ele>
        <time>2009-07-12T16:06:16Z</time>
      </trkpt>
      <trkpt lat="44.3248530" lon="-93.4636990">
        <ele>341.8900000</ele>
        <time>2009-07-12T16:06:17Z</time>
      </trkpt>
      <trkpt lat="44.3246300" lon="-93.4637060">
        <ele>341.8900000</ele>
        <time>2009-07-12T16:06:18Z</time>
      </trkpt>
      <trkpt lat="44.3244080" lon="-93.4637140">
        <ele>341.8900000</ele>
        <time>2009-07-12T16:06:19Z</time>
      </trkpt>
      <trkpt lat="44.3241900" lon="-93.4637210">
        <ele>341.4100000</ele>
        <time>2009-07-12T16:06:20Z</time>
      </trkpt>
      <trkpt lat="44.3223120" lon="-93.4637830">
        <ele>340.9200000</ele>
        <time>2009-07-12T16:06:30Z</time>
      </trkpt>
      <trkpt lat="44.3215770" lon="-93.4641680">
        <ele>342.8500000</ele>
        <time>2009-07-12T16:06:36Z</time>
      </trkpt>
      <trkpt lat="44.3214970" lon="-93.4642310">
        <ele>343.3300000</ele>
        <time>2009-07-12T16:06:37Z</time>
      </trkpt>
      <trkpt lat="44.3213890" lon="-93.4641570">
        <ele>343.3300000</ele>
        <time>2009-07-12T16:06:38Z</time>
      </trkpt>
      <trkpt lat="44.3213310" lon="-93.4640840">
        <ele>343.3300000</ele>
        <time>2009-07-12T16:06:39Z</time>
      </trkpt>
      <trkpt lat="44.3212600" lon="-93.4639910">
        <ele>343.3300000</ele>
        <time>2009-07-12T16:06:40Z</time>
      </trkpt>
      <trkpt lat="44.3211730" lon="-93.4638800">
        <ele>342.8500000</ele>
        <time>2009-07-12T16:06:41Z</time>
      </trkpt>
      <trkpt lat="44.3210400" lon="-93.4638080">
        <ele>342.3700000</ele>
        <time>2009-07-12T16:06:42Z</time>
      </trkpt>
      <trkpt lat="44.3208870" lon="-93.4637310">
        <ele>341.8900000</ele>
        <time>2009-07-12T16:06:43Z</time>
      </trkpt>
      <trkpt lat="44.3207500" lon="-93.4637000">
        <ele>341.8900000</ele>
        <time>2009-07-12T16:06:44Z</time>
      </trkpt>
      <trkpt lat="44.3205920" lon="-93.4637050">
        <ele>341.4100000</ele>
        <time>2009-07-12T16:06:45Z</time>
      </trkpt>
      <trkpt lat="44.3204330" lon="-93.4637090">
        <ele>339.9600000</ele>
        <time>2009-07-12T16:06:46Z</time>
      </trkpt>
      <trkpt lat="44.3186370" lon="-93.4635950">
        <ele>328.4300000</ele>
        <time>2009-07-12T16:06:56Z</time>
      </trkpt>
      <trkpt lat="44.3184510" lon="-93.4635110">
        <ele>327.9500000</ele>
        <time>2009-07-12T16:06:57Z</time>
      </trkpt>
      <trkpt lat="44.3182720" lon="-93.4634040">
        <ele>327.4700000</ele>
        <time>2009-07-12T16:06:58Z</time>
      </trkpt>
      <trkpt lat="44.3180960" lon="-93.4632860">
        <ele>326.9900000</ele>
        <time>2009-07-12T16:06:59Z</time>
      </trkpt>
      <trkpt lat="44.3179420" lon="-93.4631130">
        <ele>326.0200000</ele>
        <time>2009-07-12T16:07:00Z</time>
      </trkpt>
      <trkpt lat="44.3177850" lon="-93.4629370">
        <ele>325.5400000</ele>
        <time>2009-07-12T16:07:01Z</time>
      </trkpt>
      <trkpt lat="44.3176410" lon="-93.4627350">
        <ele>325.0600000</ele>
        <time>2009-07-12T16:07:02Z</time>
      </trkpt>
      <trkpt lat="44.3174950" lon="-93.4625250">
        <ele>325.0600000</ele>
        <time>2009-07-12T16:07:03Z</time>
      </trkpt>
      <trkpt lat="44.3173900" lon="-93.4622760">
        <ele>324.5800000</ele>
        <time>2009-07-12T16:07:04Z</time>
      </trkpt>
      <trkpt lat="44.3172900" lon="-93.4620170">
        <ele>324.1000000</ele>
        <time>2009-07-12T16:07:05Z</time>
      </trkpt>
      <trkpt lat="44.3171840" lon="-93.4617560">
        <ele>324.1000000</ele>
        <time>2009-07-12T16:07:06Z</time>
      </trkpt>
      <trkpt lat="44.3158470" lon="-93.4583950">
        <ele>335.6400000</ele>
        <time>2009-07-12T16:07:20Z</time>
      </trkpt>
      <trkpt lat="44.3150540" lon="-93.4552850">
        <ele>335.6400000</ele>
        <time>2009-07-12T16:07:32Z</time>
      </trkpt>
      <trkpt lat="44.3147570" lon="-93.4527330">
        <ele>346.6900000</ele>
        <time>2009-07-12T16:07:42Z</time>
      </trkpt>
      <trkpt lat="44.3151120" lon="-93.4492170">
        <ele>349.1000000</ele>
        <time>2009-07-12T16:07:55Z</time>
      </trkpt>
      <trkpt lat="44.3150660" lon="-93.4482090">
        <ele>345.7300000</ele>
        <time>2009-07-12T16:07:59Z</time>
      </trkpt>
      <trkpt lat="44.3150310" lon="-93.4479610">
        <ele>344.7700000</ele>
        <time>2009-07-12T16:08:00Z</time>
      </trkpt>
      <trkpt lat="44.3149520" lon="-93.4477490">
        <ele>343.8100000</ele>
        <time>2009-07-12T16:08:01Z</time>
      </trkpt>
      <trkpt lat="44.3148640" lon="-93.4475200">
        <ele>342.8500000</ele>
        <time>2009-07-12T16:08:02Z</time>
      </trkpt>
      <trkpt lat="44.3147700" lon="-93.4472960">
        <ele>341.8900000</ele>
        <time>2009-07-12T16:08:03Z</time>
      </trkpt>
      <trkpt lat="44.3146640" lon="-93.4470650">
        <ele>340.9200000</ele>
        <time>2009-07-12T16:08:04Z</time>
      </trkpt>
      <trkpt lat="44.3145570" lon="-93.4468330">
        <ele>339.9600000</ele>
        <time>2009-07-12T16:08:05Z</time>
      </trkpt>
      <trkpt lat="44.3144320" lon="-93.4466130">
        <ele>339.0000000</ele>
        <time>2009-07-12T16:08:06Z</time>
      </trkpt>
      <trkpt lat="44.3124350" lon="-93.4430770">
        <ele>342.3700000</ele>
        <time>2009-07-12T16:08:22Z</time>
      </trkpt>
      <trkpt lat="44.3104380" lon="-93.4395170">
        <ele>351.9800000</ele>
        <time>2009-07-12T16:08:37Z</time>
      </trkpt>
      <trkpt lat="44.3085010" lon="-93.4360070">
        <ele>363.5200000</ele>
        <time>2009-07-12T16:08:52Z</time>
      </trkpt>
      <trkpt lat="44.3070630" lon="-93.4330780">
        <ele>357.7500000</ele>
        <time>2009-07-12T16:09:04Z</time>
      </trkpt>
      <trkpt lat="44.3046930" lon="-93.4281370">
        <ele>347.1700000</ele>
        <time>2009-07-12T16:09:24Z</time>
      </trkpt>
      <trkpt lat="44.3036150" lon="-93.4253570">
        <ele>349.5800000</ele>
        <time>2009-07-12T16:09:34Z</time>
      </trkpt>
      <trkpt lat="44.3027110" lon="-93.4215100">
        <ele>340.9200000</ele>
        <time>2009-07-12T16:09:47Z</time>
      </trkpt>
      <trkpt lat="44.3022400" lon="-93.4173280">
        <ele>348.1300000</ele>
        <time>2009-07-12T16:10:01Z</time>
      </trkpt>
      <trkpt lat="44.3016250" lon="-93.4157700">
        <ele>347.1700000</ele>
        <time>2009-07-12T16:10:07Z</time>
      </trkpt>
      <trkpt lat="44.3002460" lon="-93.4129700">
        <ele>347.1700000</ele>
        <time>2009-07-12T16:10:19Z</time>
      </trkpt>
      <trkpt lat="44.2994950" lon="-93.4105300">
        <ele>348.1300000</ele>
        <time>2009-07-12T16:10:28Z</time>
      </trkpt>
      <trkpt lat="44.2986380" lon="-93.4078580">
        <ele>350.5400000</ele>
        <time>2009-07-12T16:10:38Z</time>
      </trkpt>
      <trkpt lat="44.2979660" lon="-93.4039620">
        <ele>345.2500000</ele>
        <time>2009-07-12T16:10:51Z</time>
      </trkpt>
      <trkpt lat="44.2971490" lon="-93.4009030">
        <ele>340.4400000</ele>
        <time>2009-07-12T16:11:02Z</time>
      </trkpt>
      <trkpt lat="44.2962950" lon="-93.3995010">
        <ele>337.0800000</ele>
        <time>2009-07-12T16:11:09Z</time>
      </trkpt>
      <trkpt lat="44.2945290" lon="-93.3970900">
        <ele>335.1600000</ele>
        <time>2009-07-12T16:11:23Z</time>
      </trkpt>
      <trkpt lat="44.2933450" lon="-93.3950380">
        <ele>338.5200000</ele>
        <time>2009-07-12T16:11:33Z</time>
      </trkpt>
      <trkpt lat="44.2933060" lon="-93.3947660">
        <ele>338.5200000</ele>
        <time>2009-07-12T16:11:34Z</time>
      </trkpt>
      <trkpt lat="44.2932690" lon="-93.3944980">
        <ele>338.5200000</ele>
        <time>2009-07-12T16:11:35Z</time>
      </trkpt>
      <trkpt lat="44.2932490" lon="-93.3942130">
        <ele>338.5200000</ele>
        <time>2009-07-12T16:11:36Z</time>
      </trkpt>
      <trkpt lat="44.2932280" lon="-93.3939260">
        <ele>338.5200000</ele>
        <time>2009-07-12T16:11:37Z</time>
      </trkpt>
      <trkpt lat="44.2932470" lon="-93.3936550">
        <ele>339.0000000</ele>
        <time>2009-07-12T16:11:38Z</time>
      </trkpt>
      <trkpt lat="44.2932680" lon="-93.3933590">
        <ele>339.0000000</ele>
        <time>2009-07-12T16:11:39Z</time>
      </trkpt>
      <trkpt lat="44.2933310" lon="-93.3931060">
        <ele>339.0000000</ele>
        <time>2009-07-12T16:11:40Z</time>
      </trkpt>
      <trkpt lat="44.2934110" lon="-93.3928270">
        <ele>339.0000000</ele>
        <time>2009-07-12T16:11:41Z</time>
      </trkpt>
      <trkpt lat="44.2934930" lon="-93.3925530">
        <ele>339.0000000</ele>
        <time>2009-07-12T16:11:42Z</time>
      </trkpt>
      <trkpt lat="44.2942150" lon="-93.3898260">
        <ele>337.5600000</ele>
        <time>2009-07-12T16:11:52Z</time>
      </trkpt>
      <trkpt lat="44.2942150" lon="-93.3895440">
        <ele>337.0800000</ele>
        <time>2009-07-12T16:11:53Z</time>
      </trkpt>
      <trkpt lat="44.2942010" lon="-93.3892710">
        <ele>337.0800000</ele>
        <time>2009-07-12T16:11:54Z</time>
      </trkpt>
      <trkpt lat="44.2941610" lon="-93.3889910">
        <ele>337.0800000</ele>
        <time>2009-07-12T16:11:55Z</time>
      </trkpt>
      <trkpt lat="44.2941180" lon="-93.3887130">
        <ele>336.6000000</ele>
        <time>2009-07-12T16:11:56Z</time>
      </trkpt>
      <trkpt lat="44.2940620" lon="-93.3884280">
        <ele>336.6000000</ele>
        <time>2009-07-12T16:11:57Z</time>
      </trkpt>
      <trkpt lat="44.2933140" lon="-93.3844670">
        <ele>335.6400000</ele>
        <time>2009-07-12T16:12:10Z</time>
      </trkpt>
      <trkpt lat="44.2933590" lon="-93.3835600">
        <ele>336.1200000</ele>
        <time>2009-07-12T16:12:13Z</time>
      </trkpt>
      <trkpt lat="44.2934140" lon="-93.3832710">
        <ele>336.6000000</ele>
        <time>2009-07-12T16:12:14Z</time>
      </trkpt>
      <trkpt lat="44.2934690" lon="-93.3829840">
        <ele>336.6000000</ele>
        <time>2009-07-12T16:12:15Z</time>
      </trkpt>
      <trkpt lat="44.2935240" lon="-93.3826980">
        <ele>336.6000000</ele>
        <time>2009-07-12T16:12:16Z</time>
      </trkpt>
      <trkpt lat="44.2936030" lon="-93.3824270">
        <ele>336.6000000</ele>
        <time>2009-07-12T16:12:17Z</time>
      </trkpt>
      <trkpt lat="44.2948220" lon="-93.3781170">
        <ele>337.0800000</ele>
        <time>2009-07-12T16:12:33Z</time>
      </trkpt>
      <trkpt lat="44.2949270" lon="-93.3757110">
        <ele>334.6800000</ele>
        <time>2009-07-12T16:12:42Z</time>
      </trkpt>
      <trkpt lat="44.2953410" lon="-93.3739500">
        <ele>336.1200000</ele>
        <time>2009-07-12T16:12:49Z</time>
      </trkpt>
      <trkpt lat="44.2963670" lon="-93.3722280">
        <ele>337.5600000</ele>
        <time>2009-07-12T16:12:57Z</time>
      </trkpt>
      <trkpt lat="44.2976370" lon="-93.3696080">
        <ele>339.4800000</ele>
        <time>2009-07-12T16:13:09Z</time>
      </trkpt>
      <trkpt lat="44.2977750" lon="-93.3677410">
        <ele>337.5600000</ele>
        <time>2009-07-12T16:13:16Z</time>
      </trkpt>
      <trkpt lat="44.2977340" lon="-93.3630490">
        <ele>334.2000000</ele>
        <time>2009-07-12T16:13:33Z</time>
      </trkpt>
      <trkpt lat="44.2977340" lon="-93.3588920">
        <ele>330.8300000</ele>
        <time>2009-07-12T16:13:47Z</time>
      </trkpt>
      <trkpt lat="44.2977340" lon="-93.3536620">
        <ele>324.5800000</ele>
        <time>2009-07-12T16:14:04Z</time>
      </trkpt>
      <trkpt lat="44.2977340" lon="-93.3482470">
        <ele>329.8700000</ele>
        <time>2009-07-12T16:14:22Z</time>
      </trkpt>
      <trkpt lat="44.2977230" lon="-93.3443040">
        <ele>329.8700000</ele>
        <time>2009-07-12T16:14:35Z</time>
      </trkpt>
      <trkpt lat="44.2976070" lon="-93.3437920">
        <ele>328.4300000</ele>
        <time>2009-07-12T16:14:37Z</time>
      </trkpt>
      <trkpt lat="44.2975490" lon="-93.3435370">
        <ele>327.9500000</ele>
        <time>2009-07-12T16:14:38Z</time>
      </trkpt>
      <trkpt lat="44.2974780" lon="-93.3433100">
        <ele>326.9900000</ele>
        <time>2009-07-12T16:14:39Z</time>
      </trkpt>
      <trkpt lat="44.2973870" lon="-93.3430930">
        <ele>326.0200000</ele>
        <time>2009-07-12T16:14:40Z</time>
      </trkpt>
      <trkpt lat="44.2972990" lon="-93.3428830">
        <ele>325.5400000</ele>
        <time>2009-07-12T16:14:41Z</time>
      </trkpt>
      <trkpt lat="44.2972120" lon="-93.3426770">
        <ele>325.0600000</ele>
        <time>2009-07-12T16:14:42Z</time>
      </trkpt>
      <trkpt lat="44.2965920" lon="-93.3409060">
        <ele>322.1800000</ele>
        <time>2009-07-12T16:14:51Z</time>
      </trkpt>
      <trkpt lat="44.2964470" lon="-93.3389360">
        <ele>314.4900000</ele>
        <time>2009-07-12T16:15:00Z</time>
      </trkpt>
      <trkpt lat="44.2967470" lon="-93.3355260">
        <ele>310.6400000</ele>
        <time>2009-07-12T16:15:15Z</time>
      </trkpt>
      <trkpt lat="44.2966150" lon="-93.3346970">
        <ele>309.6800000</ele>
        <time>2009-07-12T16:15:19Z</time>
      </trkpt>
      <trkpt lat="44.2965450" lon="-93.3345020">
        <ele>309.2000000</ele>
        <time>2009-07-12T16:15:20Z</time>
      </trkpt>
      <trkpt lat="44.2964720" lon="-93.3342980">
        <ele>309.6800000</ele>
        <time>2009-07-12T16:15:21Z</time>
      </trkpt>
      <trkpt lat="44.2963970" lon="-93.3340910">
        <ele>310.6400000</ele>
        <time>2009-07-12T16:15:22Z</time>
      </trkpt>
      <trkpt lat="44.2963220" lon="-93.3338820">
        <ele>311.1200000</ele>
        <time>2009-07-12T16:15:23Z</time>
      </trkpt>
      <trkpt lat="44.2962060" lon="-93.3327980">
        <ele>311.1200000</ele>
        <time>2009-07-12T16:15:28Z</time>
      </trkpt>
      <trkpt lat="44.2962460" lon="-93.3325670">
        <ele>311.6000000</ele>
        <time>2009-07-12T16:15:29Z</time>
      </trkpt>
      <trkpt lat="44.2962860" lon="-93.3323410">
        <ele>311.6000000</ele>
        <time>2009-07-12T16:15:30Z</time>
      </trkpt>
      <trkpt lat="44.2963310" lon="-93.3321180">
        <ele>312.0900000</ele>
        <time>2009-07-12T16:15:31Z</time>
      </trkpt>
      <trkpt lat="44.2963950" lon="-93.3318930">
        <ele>312.0900000</ele>
        <time>2009-07-12T16:15:32Z</time>
      </trkpt>
      <trkpt lat="44.2974160" lon="-93.3283560">
        <ele>311.1200000</ele>
        <time>2009-07-12T16:15:49Z</time>
      </trkpt>
      <trkpt lat="44.2977770" lon="-93.3261850">
        <ele>312.0900000</ele>
        <time>2009-07-12T16:16:01Z</time>
      </trkpt>
      <trkpt lat="44.2978520" lon="-93.3228790">
        <ele>312.5700000</ele>
        <time>2009-07-12T16:16:18Z</time>
      </trkpt>
      <trkpt lat="44.2982320" lon="-93.3215810">
        <ele>311.6000000</ele>
        <time>2009-07-12T16:16:25Z</time>
      </trkpt>
      <trkpt lat="44.2996980" lon="-93.3177760">
        <ele>312.5700000</ele>
        <time>2009-07-12T16:16:45Z</time>
      </trkpt>
      <trkpt lat="44.2999090" lon="-93.3167960">
        <ele>312.5700000</ele>
        <time>2009-07-12T16:16:52Z</time>
      </trkpt>
      <trkpt lat="44.2999630" lon="-93.3163950">
        <ele>313.0500000</ele>
        <time>2009-07-12T16:16:59Z</time>
      </trkpt>
      <trkpt lat="44.3000030" lon="-93.3161020">
        <ele>314.0100000</ele>
        <time>2009-07-12T16:17:13Z</time>
      </trkpt>
      <trkpt lat="44.3001350" lon="-93.3152720">
        <ele>314.0100000</ele>
        <time>2009-07-12T16:17:32Z</time>
      </trkpt>
      <trkpt lat="44.3001450" lon="-93.3152340">
        <ele>314.4900000</ele>
        <time>2009-07-12T16:17:47Z</time>
      </trkpt>
      <trkpt lat="44.3004200" lon="-93.3150470">
        <ele>314.0100000</ele>
        <time>2009-07-12T16:17:57Z</time>
      </trkpt>
      <trkpt lat="44.3004500" lon="-93.3151070">
        <ele>314.4900000</ele>
        <time>2009-07-12T16:17:58Z</time>
      </trkpt>
      <trkpt lat="44.3005140" lon="-93.3152220">
        <ele>314.0100000</ele>
        <time>2009-07-12T16:17:59Z</time>
      </trkpt>
      <trkpt lat="44.3005820" lon="-93.3153320">
        <ele>313.5300000</ele>
        <time>2009-07-12T16:18:00Z</time>
      </trkpt>
      <trkpt lat="44.3006560" lon="-93.3154490">
        <ele>313.0500000</ele>
        <time>2009-07-12T16:18:01Z</time>
      </trkpt>
      <trkpt lat="44.3014070" lon="-93.3163900">
        <ele>312.0900000</ele>
        <time>2009-07-12T16:18:08Z</time>
      </trkpt>
      <trkpt lat="44.3030690" lon="-93.3183650">
        <ele>315.9300000</ele>
        <time>2009-07-12T16:18:22Z</time>
      </trkpt>
      <trkpt lat="44.3046180" lon="-93.3206020">
        <ele>323.1400000</ele>
        <time>2009-07-12T16:18:37Z</time>
      </trkpt>
      <trkpt lat="44.3049030" lon="-93.3223930">
        <ele>321.2200000</ele>
        <time>2009-07-12T16:18:45Z</time>
      </trkpt>
      <trkpt lat="44.3049440" lon="-93.3250960">
        <ele>313.0500000</ele>
        <time>2009-07-12T16:18:55Z</time>
      </trkpt>
      <trkpt lat="44.3049440" lon="-93.3305680">
        <ele>315.4500000</ele>
        <time>2009-07-12T16:19:13Z</time>
      </trkpt>
      <trkpt lat="44.3049440" lon="-93.3311990">
        <ele>315.4500000</ele>
        <time>2009-07-12T16:19:15Z</time>
      </trkpt>
      <trkpt lat="44.3049440" lon="-93.3315070">
        <ele>315.4500000</ele>
        <time>2009-07-12T16:19:16Z</time>
      </trkpt>
      <trkpt lat="44.3049440" lon="-93.3317980">
        <ele>314.9700000</ele>
        <time>2009-07-12T16:19:17Z</time>
      </trkpt>
      <trkpt lat="44.3049440" lon="-93.3320740">
        <ele>314.4900000</ele>
        <time>2009-07-12T16:19:18Z</time>
      </trkpt>
      <trkpt lat="44.3049440" lon="-93.3323260">
        <ele>314.4900000</ele>
        <time>2009-07-12T16:19:19Z</time>
      </trkpt>
      <trkpt lat="44.3055650" lon="-93.3331860">
        <ele>313.5300000</ele>
        <time>2009-07-12T16:19:20Z</time>
      </trkpt>
      <trkpt lat="44.3057430" lon="-93.3331720">
        <ele>313.0500000</ele>
        <time>2009-07-12T16:19:21Z</time>
      </trkpt>
      <trkpt lat="44.3059380" lon="-93.3331560">
        <ele>312.5700000</ele>
        <time>2009-07-12T16:19:22Z</time>
      </trkpt>
      <trkpt lat="44.3061430" lon="-93.3331600">
        <ele>312.5700000</ele>
        <time>2009-07-12T16:19:23Z</time>
      </trkpt>
      <trkpt lat="44.3063950" lon="-93.3331800">
        <ele>312.0900000</ele>
        <time>2009-07-12T16:19:24Z</time>
      </trkpt>
      <trkpt lat="44.3066500" lon="-93.3332000">
        <ele>311.6000000</ele>
        <time>2009-07-12T16:19:25Z</time>
      </trkpt>
      <trkpt lat="44.3068950" lon="-93.3332190">
        <ele>311.6000000</ele>
        <time>2009-07-12T16:19:26Z</time>
      </trkpt>
      <trkpt lat="44.3071360" lon="-93.3332380">
        <ele>312.0900000</ele>
        <time>2009-07-12T16:19:27Z</time>
      </trkpt>
      <trkpt lat="44.3114500" lon="-93.3332440">
        <ele>314.9700000</ele>
        <time>2009-07-12T16:19:45Z</time>
      </trkpt>
      <trkpt lat="44.3152690" lon="-93.3332090">
        <ele>317.8500000</ele>
        <time>2009-07-12T16:20:01Z</time>
      </trkpt>
      <trkpt lat="44.3184230" lon="-93.3331680">
        <ele>311.6000000</ele>
        <time>2009-07-12T16:20:15Z</time>
      </trkpt>
      <trkpt lat="44.3193840" lon="-93.3331520">
        <ele>310.1600000</ele>
        <time>2009-07-12T16:20:22Z</time>
      </trkpt>
      <trkpt lat="44.3210920" lon="-93.3331500">
        <ele>308.7200000</ele>
        <time>2009-07-12T16:20:36Z</time>
      </trkpt>
      <trkpt lat="44.3215250" lon="-93.3330150">
        <ele>309.2000000</ele>
        <time>2009-07-12T16:20:40Z</time>
      </trkpt>
      <trkpt lat="44.3216090" lon="-93.3329450">
        <ele>309.2000000</ele>
        <time>2009-07-12T16:20:41Z</time>
      </trkpt>
      <trkpt lat="44.3220130" lon="-93.3325720">
        <ele>310.6400000</ele>
        <time>2009-07-12T16:20:47Z</time>
      </trkpt>
      <trkpt lat="44.3220530" lon="-93.3324920">
        <ele>310.6400000</ele>
        <time>2009-07-12T16:20:48Z</time>
      </trkpt>
      <trkpt lat="44.3220790" lon="-93.3324130">
        <ele>311.1200000</ele>
        <time>2009-07-12T16:20:49Z</time>
      </trkpt>
      <trkpt lat="44.3221000" lon="-93.3323260">
        <ele>311.1200000</ele>
        <time>2009-07-12T16:20:50Z</time>
      </trkpt>
      <trkpt lat="44.3221210" lon="-93.3322380">
        <ele>311.1200000</ele>
        <time>2009-07-12T16:20:51Z</time>
      </trkpt>
      <trkpt lat="44.3221420" lon="-93.3321520">
        <ele>311.1200000</ele>
        <time>2009-07-12T16:20:52Z</time>
      </trkpt>
      <trkpt lat="44.3221610" lon="-93.3320690">
        <ele>311.6000000</ele>
        <time>2009-07-12T16:20:53Z</time>
      </trkpt>
      <trkpt lat="44.3225330" lon="-93.3309040">
        <ele>312.0900000</ele>
        <time>2009-07-12T16:21:05Z</time>
      </trkpt>
      <trkpt lat="44.3228210" lon="-93.3304490">
        <ele>312.0900000</ele>
        <time>2009-07-12T16:21:10Z</time>
      </trkpt>
      <trkpt lat="44.3236540" lon="-93.3295840">
        <ele>312.5700000</ele>
        <time>2009-07-12T16:21:22Z</time>
      </trkpt>
      <trkpt lat="44.3245670" lon="-93.3291920">
        <ele>316.4100000</ele>
        <time>2009-07-12T16:21:32Z</time>
      </trkpt>
      <trkpt lat="44.3260000" lon="-93.3288160">
        <ele>319.7800000</ele>
        <time>2009-07-12T16:21:46Z</time>
      </trkpt>
      <trkpt lat="44.3267020" lon="-93.3289270">
        <ele>326.5000000</ele>
        <time>2009-07-12T16:21:53Z</time>
      </trkpt>
      <trkpt lat="44.3267990" lon="-93.3289850">
        <ele>327.4700000</ele>
        <time>2009-07-12T16:21:54Z</time>
      </trkpt>
      <trkpt lat="44.3268970" lon="-93.3290440">
        <ele>327.9500000</ele>
        <time>2009-07-12T16:21:55Z</time>
      </trkpt>
      <trkpt lat="44.3275770" lon="-93.3295600">
        <ele>327.9500000</ele>
        <time>2009-07-12T16:22:04Z</time>
      </trkpt>
      <trkpt lat="44.3279660" lon="-93.3298800">
        <ele>325.0600000</ele>
        <time>2009-07-12T16:22:18Z</time>
      </trkpt>
      <trkpt lat="44.3283090" lon="-93.3301650">
        <ele>326.0200000</ele>
        <time>2009-07-12T16:22:29Z</time>
      </trkpt>
      <trkpt lat="44.3286250" lon="-93.3304810">
        <ele>328.9100000</ele>
        <time>2009-07-12T16:22:44Z</time>
      </trkpt>
      <trkpt lat="44.3289230" lon="-93.3307790">
        <ele>327.4700000</ele>
        <time>2009-07-12T16:22:52Z</time>
      </trkpt>
      <trkpt lat="44.3290830" lon="-93.3309390">
        <ele>326.5000000</ele>
        <time>2009-07-12T16:22:55Z</time>
      </trkpt>
      <trkpt lat="44.3291370" lon="-93.3309930">
        <ele>326.0200000</ele>
        <time>2009-07-12T16:22:56Z</time>
      </trkpt>
      <trkpt lat="44.3292370" lon="-93.3310930">
        <ele>323.1400000</ele>
        <time>2009-07-12T16:22:58Z</time>
      </trkpt>
      <trkpt lat="44.3295390" lon="-93.3316610">
        <ele>319.3000000</ele>
        <time>2009-07-12T16:23:07Z</time>
      </trkpt>
      <trkpt lat="44.3295580" lon="-93.3317140">
        <ele>319.3000000</ele>
        <time>2009-07-12T16:23:08Z</time>
      </trkpt>
      <trkpt lat="44.3295810" lon="-93.3317780">
        <ele>318.8100000</ele>
        <time>2009-07-12T16:23:09Z</time>
      </trkpt>
      <trkpt lat="44.3298100" lon="-93.3324150">
        <ele>314.4900000</ele>
        <time>2009-07-12T16:23:24Z</time>
      </trkpt>
      <trkpt lat="44.3298840" lon="-93.3326190">
        <ele>315.9300000</ele>
        <time>2009-07-12T16:23:28Z</time>
      </trkpt>
      <trkpt lat="44.3299240" lon="-93.3327360">
        <ele>315.9300000</ele>
        <time>2009-07-12T16:23:30Z</time>
      </trkpt>
      <trkpt lat="44.3299400" lon="-93.3327990">
        <ele>315.9300000</ele>
        <time>2009-07-12T16:23:31Z</time>
      </trkpt>
      <trkpt lat="44.3299550" lon="-93.3328580">
        <ele>315.9300000</ele>
        <time>2009-07-12T16:23:32Z</time>
      </trkpt>
      <trkpt lat="44.3300250" lon="-93.3331390">
        <ele>316.4100000</ele>
        <time>2009-07-12T16:23:41Z</time>
      </trkpt>
      <trkpt lat="44.3301740" lon="-93.3337350">
        <ele>316.8900000</ele>
        <time>2009-07-12T16:23:53Z</time>
      </trkpt>
      <trkpt lat="44.3302650" lon="-93.3343030">
        <ele>318.8100000</ele>
        <time>2009-07-12T16:24:01Z</time>
      </trkpt>
      <trkpt lat="44.3302730" lon="-93.3343730">
        <ele>319.3000000</ele>
        <time>2009-07-12T16:24:02Z</time>
      </trkpt>
      <trkpt lat="44.3302900" lon="-93.3345250">
        <ele>319.3000000</ele>
        <time>2009-07-12T16:24:04Z</time>
      </trkpt>
      <trkpt lat="44.3303220" lon="-93.3356700">
        <ele>320.2600000</ele>
        <time>2009-07-12T16:24:14Z</time>
      </trkpt>
      <trkpt lat="44.3303720" lon="-93.3367060">
        <ele>320.2600000</ele>
        <time>2009-07-12T16:24:21Z</time>
      </trkpt>
      <trkpt lat="44.3303880" lon="-93.3368750">
        <ele>319.3000000</ele>
        <time>2009-07-12T16:24:22Z</time>
      </trkpt>
      <trkpt lat="44.3304240" lon="-93.3370410">
        <ele>319.7800000</ele>
        <time>2009-07-12T16:24:23Z</time>
      </trkpt>
      <trkpt lat="44.3310590" lon="-93.3390610">
        <ele>317.3700000</ele>
        <time>2009-07-12T16:24:34Z</time>
      </trkpt>
      <trkpt lat="44.3315380" lon="-93.3404550">
        <ele>316.8900000</ele>
        <time>2009-07-12T16:24:43Z</time>
      </trkpt>
      <trkpt lat="44.3322660" lon="-93.3421620">
        <ele>323.1400000</ele>
        <time>2009-07-12T16:24:54Z</time>
      </trkpt>
      <trkpt lat="44.3330360" lon="-93.3433170">
        <ele>326.0200000</ele>
        <time>2009-07-12T16:25:04Z</time>
      </trkpt>
      <trkpt lat="44.3338790" lon="-93.3443920">
        <ele>324.5800000</ele>
        <time>2009-07-12T16:25:15Z</time>
      </trkpt>
      <trkpt lat="44.3339810" lon="-93.3443710">
        <ele>324.5800000</ele>
        <time>2009-07-12T16:25:16Z</time>
      </trkpt>
      <trkpt lat="44.3341120" lon="-93.3443080">
        <ele>324.1000000</ele>
        <time>2009-07-12T16:25:17Z</time>
      </trkpt>
      <trkpt lat="44.3342240" lon="-93.3441390">
        <ele>325.0600000</ele>
        <time>2009-07-12T16:25:18Z</time>
      </trkpt>
      <trkpt lat="44.3343250" lon="-93.3439890">
        <ele>325.0600000</ele>
        <time>2009-07-12T16:25:19Z</time>
      </trkpt>
      <trkpt lat="44.3344210" lon="-93.3438440">
        <ele>326.0200000</ele>
        <time>2009-07-12T16:25:20Z</time>
      </trkpt>
      <trkpt lat="44.3345130" lon="-93.3437060">
        <ele>326.9900000</ele>
        <time>2009-07-12T16:25:21Z</time>
      </trkpt>
      <trkpt lat="44.3346030" lon="-93.3435750">
        <ele>327.4700000</ele>
        <time>2009-07-12T16:25:22Z</time>
      </trkpt>
      <trkpt lat="44.3347010" lon="-93.3434920">
        <ele>327.4700000</ele>
        <time>2009-07-12T16:25:23Z</time>
      </trkpt>
      <trkpt lat="44.3347980" lon="-93.3434120">
        <ele>326.5000000</ele>
        <time>2009-07-12T16:25:24Z</time>
      </trkpt>
      <trkpt lat="44.3348800" lon="-93.3433630">
        <ele>326.5000000</ele>
        <time>2009-07-12T16:25:25Z</time>
      </trkpt>
      <trkpt lat="44.3349880" lon="-93.3433570">
        <ele>326.5000000</ele>
        <time>2009-07-12T16:25:26Z</time>
      </trkpt>
      <trkpt lat="44.3350890" lon="-93.3433520">
        <ele>327.4700000</ele>
        <time>2009-07-12T16:25:27Z</time>
      </trkpt>
      <trkpt lat="44.3351940" lon="-93.3433460">
        <ele>327.9500000</ele>
        <time>2009-07-12T16:25:28Z</time>
      </trkpt>
      <trkpt lat="44.3353010" lon="-93.3433410">
        <ele>328.9100000</ele>
        <time>2009-07-12T16:25:29Z</time>
      </trkpt>
      <trkpt lat="44.3366920" lon="-93.3432940">
        <ele>326.5000000</ele>
        <time>2009-07-12T16:25:40Z</time>
      </trkpt>
      <trkpt lat="44.3382470" lon="-93.3432780">
        <ele>331.3100000</ele>
        <time>2009-07-12T16:25:51Z</time>
      </trkpt>
      <trkpt lat="44.3410750" lon="-93.3432780">
        <ele>332.2700000</ele>
        <time>2009-07-12T16:26:07Z</time>
      </trkpt>
      <trkpt lat="44.3434970" lon="-93.3432470">
        <ele>320.7400000</ele>
        <time>2009-07-12T16:26:18Z</time>
      </trkpt>
      <trkpt lat="44.3466910" lon="-93.3431560">
        <ele>321.2200000</ele>
        <time>2009-07-12T16:26:32Z</time>
      </trkpt>
      <trkpt lat="44.3481090" lon="-93.3431150">
        <ele>328.4300000</ele>
        <time>2009-07-12T16:26:41Z</time>
      </trkpt>
      <trkpt lat="44.3485900" lon="-93.3429970">
        <ele>331.7900000</ele>
        <time>2009-07-12T16:26:47Z</time>
      </trkpt>
      <trkpt lat="44.3489650" lon="-93.3427600">
        <ele>334.2000000</ele>
        <time>2009-07-12T16:26:58Z</time>
      </trkpt>
      <trkpt lat="44.3492000" lon="-93.3426120">
        <ele>333.2300000</ele>
        <time>2009-07-12T16:27:06Z</time>
      </trkpt>
      <trkpt lat="44.3492230" lon="-93.3425970">
        <ele>333.2300000</ele>
        <time>2009-07-12T16:27:07Z</time>
      </trkpt>
      <trkpt lat="44.3493200" lon="-93.3427900">
        <ele>332.7500000</ele>
        <time>2009-07-12T16:27:08Z</time>
      </trkpt>
      <trkpt lat="44.3493960" lon="-93.3429590">
        <ele>332.7500000</ele>
        <time>2009-07-12T16:27:09Z</time>
      </trkpt>
      <trkpt lat="44.3494700" lon="-93.3431280">
        <ele>332.7500000</ele>
        <time>2009-07-12T16:27:10Z</time>
      </trkpt>
      <trkpt lat="44.3495540" lon="-93.3433150">
        <ele>332.7500000</ele>
        <time>2009-07-12T16:27:11Z</time>
      </trkpt>
      <trkpt lat="44.3496650" lon="-93.3435310">
        <ele>332.7500000</ele>
        <time>2009-07-12T16:27:12Z</time>
      </trkpt>
      <trkpt lat="44.3507410" lon="-93.3451030">
        <ele>335.6400000</ele>
        <time>2009-07-12T16:27:20Z</time>
      </trkpt>
      <trkpt lat="44.3526410" lon="-93.3476980">
        <ele>337.0800000</ele>
        <time>2009-07-12T16:27:33Z</time>
      </trkpt>
      <trkpt lat="44.3543190" lon="-93.3499810">
        <ele>338.0400000</ele>
        <time>2009-07-12T16:27:43Z</time>
      </trkpt>
      <trkpt lat="44.3576010" lon="-93.3544010">
        <ele>339.4800000</ele>
        <time>2009-07-12T16:28:02Z</time>
      </trkpt>
      <trkpt lat="44.3587000" lon="-93.3559820">
        <ele>338.5200000</ele>
        <time>2009-07-12T16:28:10Z</time>
      </trkpt>
      <trkpt lat="44.3590730" lon="-93.3566130">
        <ele>337.5600000</ele>
        <time>2009-07-12T16:28:16Z</time>
      </trkpt>
      <trkpt lat="44.3591460" lon="-93.3565030">
        <ele>337.5600000</ele>
        <time>2009-07-12T16:28:17Z</time>
      </trkpt>
      <trkpt lat="44.3591950" lon="-93.3564580">
        <ele>337.0800000</ele>
        <time>2009-07-12T16:28:18Z</time>
      </trkpt>
      <trkpt lat="44.3592680" lon="-93.3563910">
        <ele>337.0800000</ele>
        <time>2009-07-12T16:28:19Z</time>
      </trkpt>
      <trkpt lat="44.3593570" lon="-93.3563100">
        <ele>336.6000000</ele>
        <time>2009-07-12T16:28:20Z</time>
      </trkpt>
      <trkpt lat="44.3603660" lon="-93.3553840">
        <ele>334.6800000</ele>
        <time>2009-07-12T16:28:28Z</time>
      </trkpt>
      <trkpt lat="44.3623900" lon="-93.3535810">
        <ele>329.8700000</ele>
        <time>2009-07-12T16:28:39Z</time>
      </trkpt>
      <trkpt lat="44.3637500" lon="-93.3529510">
        <ele>328.9100000</ele>
        <time>2009-07-12T16:28:45Z</time>
      </trkpt>
      <trkpt lat="44.3656930" lon="-93.3528570">
        <ele>324.5800000</ele>
        <time>2009-07-12T16:28:53Z</time>
      </trkpt>
      <trkpt lat="44.3688360" lon="-93.3527910">
        <ele>320.7400000</ele>
        <time>2009-07-12T16:29:07Z</time>
      </trkpt>
      <trkpt lat="44.3699800" lon="-93.3527670">
        <ele>321.7000000</ele>
        <time>2009-07-12T16:29:14Z</time>
      </trkpt>
      <trkpt lat="44.3703600" lon="-93.3526860">
        <ele>320.7400000</ele>
        <time>2009-07-12T16:29:21Z</time>
      </trkpt>
      <trkpt lat="44.3709710" lon="-93.3524160">
        <ele>317.3700000</ele>
        <time>2009-07-12T16:29:32Z</time>
      </trkpt>
      <trkpt lat="44.3715010" lon="-93.3520520">
        <ele>317.3700000</ele>
        <time>2009-07-12T16:29:42Z</time>
      </trkpt>
      <trkpt lat="44.3715400" lon="-93.3520250">
        <ele>316.8900000</ele>
        <time>2009-07-12T16:29:43Z</time>
      </trkpt>
      <trkpt lat="44.3715670" lon="-93.3520060">
        <ele>316.8900000</ele>
        <time>2009-07-12T16:29:44Z</time>
      </trkpt>
      <trkpt lat="44.3715520" lon="-93.3519020">
        <ele>316.4100000</ele>
        <time>2009-07-12T16:29:45Z</time>
      </trkpt>
      <trkpt lat="44.3715220" lon="-93.3518360">
        <ele>315.9300000</ele>
        <time>2009-07-12T16:29:46Z</time>
      </trkpt>
      <trkpt lat="44.3714800" lon="-93.3517410">
        <ele>315.9300000</ele>
        <time>2009-07-12T16:29:47Z</time>
      </trkpt>
      <trkpt lat="44.3714190" lon="-93.3516060">
        <ele>315.4500000</ele>
        <time>2009-07-12T16:29:48Z</time>
      </trkpt>
      <trkpt lat="44.3713560" lon="-93.3514630">
        <ele>315.4500000</ele>
        <time>2009-07-12T16:29:49Z</time>
      </trkpt>
      <trkpt lat="44.3709150" lon="-93.3504790">
        <ele>315.4500000</ele>
        <time>2009-07-12T16:29:54Z</time>
      </trkpt>
      <trkpt lat="44.3707390" lon="-93.3499080">
        <ele>315.9300000</ele>
        <time>2009-07-12T16:29:56Z</time>
      </trkpt>
      <trkpt lat="44.3707020" lon="-93.3495750">
        <ele>315.4500000</ele>
        <time>2009-07-12T16:29:57Z</time>
      </trkpt>
      <trkpt lat="44.3706900" lon="-93.3492350">
        <ele>314.9700000</ele>
        <time>2009-07-12T16:29:58Z</time>
      </trkpt>
      <trkpt lat="44.3706900" lon="-93.3488950">
        <ele>315.4500000</ele>
        <time>2009-07-12T16:29:59Z</time>
      </trkpt>
      <trkpt lat="44.3706900" lon="-93.3485590">
        <ele>315.9300000</ele>
        <time>2009-07-12T16:30:00Z</time>
      </trkpt>
      <trkpt lat="44.3706900" lon="-93.3436130">
        <ele>320.2600000</ele>
        <time>2009-07-12T16:30:15Z</time>
      </trkpt>
      <trkpt lat="44.3706900" lon="-93.3380420">
        <ele>324.5800000</ele>
        <time>2009-07-12T16:30:31Z</time>
      </trkpt>
      <trkpt lat="44.3706900" lon="-93.3341880">
        <ele>322.1800000</ele>
        <time>2009-07-12T16:30:43Z</time>
      </trkpt>
      <trkpt lat="44.3706900" lon="-93.3304490">
        <ele>325.0600000</ele>
        <time>2009-07-12T16:30:56Z</time>
      </trkpt>
      <trkpt lat="44.3706900" lon="-93.3259660">
        <ele>330.8300000</ele>
        <time>2009-07-12T16:31:12Z</time>
      </trkpt>
      <trkpt lat="44.3706900" lon="-93.3228780">
        <ele>329.3900000</ele>
        <time>2009-07-12T16:31:24Z</time>
      </trkpt>
      <trkpt lat="44.3706900" lon="-93.3191810">
        <ele>330.3500000</ele>
        <time>2009-07-12T16:31:39Z</time>
      </trkpt>
      <trkpt lat="44.3706900" lon="-93.3147020">
        <ele>325.5400000</ele>
        <time>2009-07-12T16:31:55Z</time>
      </trkpt>
      <trkpt lat="44.3706900" lon="-93.3086270">
        <ele>322.6600000</ele>
        <time>2009-07-12T16:32:16Z</time>
      </trkpt>
      <trkpt lat="44.3706900" lon="-93.3050790">
        <ele>320.2600000</ele>
        <time>2009-07-12T16:32:30Z</time>
      </trkpt>
      <trkpt lat="44.3706900" lon="-93.3038620">
        <ele>317.8500000</ele>
        <time>2009-07-12T16:32:38Z</time>
      </trkpt>
      <trkpt lat="44.3706900" lon="-93.3037410">
        <ele>316.8900000</ele>
        <time>2009-07-12T16:32:44Z</time>
      </trkpt>
      <trkpt lat="44.3706900" lon="-93.3031650">
        <ele>315.9300000</ele>
        <time>2009-07-12T16:32:54Z</time>
      </trkpt>
      <trkpt lat="44.3706900" lon="-93.3028370">
        <ele>315.9300000</ele>
        <time>2009-07-12T16:33:06Z</time>
      </trkpt>
      <trkpt lat="44.3706900" lon="-93.3024390">
        <ele>316.4100000</ele>
        <time>2009-07-12T16:33:12Z</time>
      </trkpt>
      <trkpt lat="44.3706900" lon="-93.3012620">
        <ele>314.9700000</ele>
        <time>2009-07-12T16:33:18Z</time>
      </trkpt>
      <trkpt lat="44.3706900" lon="-93.2989280">
        <ele>314.9700000</ele>
        <time>2009-07-12T16:33:27Z</time>
      </trkpt>
      <trkpt lat="44.3706900" lon="-93.2954000">
        <ele>313.5300000</ele>
        <time>2009-07-12T16:33:38Z</time>
      </trkpt>
      <trkpt lat="44.3706900" lon="-93.2914500">
        <ele>319.3000000</ele>
        <time>2009-07-12T16:33:51Z</time>
      </trkpt>
      <trkpt lat="44.3706900" lon="-93.2891230">
        <ele>320.2600000</ele>
        <time>2009-07-12T16:34:00Z</time>
      </trkpt>
      <trkpt lat="44.3706900" lon="-93.2882200">
        <ele>324.5800000</ele>
        <time>2009-07-12T16:34:07Z</time>
      </trkpt>
      <trkpt lat="44.3706900" lon="-93.2876820">
        <ele>325.5400000</ele>
        <time>2009-07-12T16:34:18Z</time>
      </trkpt>
      <trkpt lat="44.3706900" lon="-93.2872750">
        <ele>325.0600000</ele>
        <time>2009-07-12T16:34:24Z</time>
      </trkpt>
      <trkpt lat="44.3706900" lon="-93.2862390">
        <ele>323.1400000</ele>
        <time>2009-07-12T16:34:29Z</time>
      </trkpt>
      <trkpt lat="44.3706900" lon="-93.2837890">
        <ele>319.7800000</ele>
        <time>2009-07-12T16:34:37Z</time>
      </trkpt>
      <trkpt lat="44.3706760" lon="-93.2788550">
        <ele>319.7800000</ele>
        <time>2009-07-12T16:34:53Z</time>
      </trkpt>
      <trkpt lat="44.3706560" lon="-93.2743340">
        <ele>320.2600000</ele>
        <time>2009-07-12T16:35:08Z</time>
      </trkpt>
      <trkpt lat="44.3706530" lon="-93.2735300">
        <ele>318.8100000</ele>
        <time>2009-07-12T16:35:13Z</time>
      </trkpt>
      <trkpt lat="44.3706500" lon="-93.2729240">
        <ele>319.7800000</ele>
        <time>2009-07-12T16:35:21Z</time>
      </trkpt>
      <trkpt lat="44.3706470" lon="-93.2722650">
        <ele>318.3300000</ele>
        <time>2009-07-12T16:35:32Z</time>
      </trkpt>
      <trkpt lat="44.3706470" lon="-93.2715620">
        <ele>318.3300000</ele>
        <time>2009-07-12T16:35:39Z</time>
      </trkpt>
      <trkpt lat="44.3706470" lon="-93.2684920">
        <ele>312.5700000</ele>
        <time>2009-07-12T16:36:00Z</time>
      </trkpt>
      <trkpt lat="44.3706470" lon="-93.2670080">
        <ele>309.6800000</ele>
        <time>2009-07-12T16:36:10Z</time>
      </trkpt>
      <trkpt lat="44.3706470" lon="-93.2649800">
        <ele>305.3600000</ele>
        <time>2009-07-12T16:36:19Z</time>
      </trkpt>
      <trkpt lat="44.3706470" lon="-93.2602990">
        <ele>299.5900000</ele>
        <time>2009-07-12T16:36:37Z</time>
      </trkpt>
      <trkpt lat="44.3706470" lon="-93.2566750">
        <ele>298.6300000</ele>
        <time>2009-07-12T16:36:52Z</time>
      </trkpt>
      <trkpt lat="44.3706750" lon="-93.2545830">
        <ele>297.6700000</ele>
        <time>2009-07-12T16:37:03Z</time>
      </trkpt>
      <trkpt lat="44.3706040" lon="-93.2541990">
        <ele>296.2200000</ele>
        <time>2009-07-12T16:37:07Z</time>
      </trkpt>
      <trkpt lat="44.3705420" lon="-93.2540580">
        <ele>297.6700000</ele>
        <time>2009-07-12T16:37:14Z</time>
      </trkpt>
      <trkpt lat="44.3704600" lon="-93.2539500">
        <ele>298.6300000</ele>
        <time>2009-07-12T16:37:18Z</time>
      </trkpt>
      <trkpt lat="44.3704300" lon="-93.2539700">
        <ele>298.6300000</ele>
        <time>2009-07-12T16:37:19Z</time>
      </trkpt>
      <trkpt lat="44.3703780" lon="-93.2540060">
        <ele>298.1500000</ele>
        <time>2009-07-12T16:37:20Z</time>
      </trkpt>
      <trkpt lat="44.3703090" lon="-93.2540520">
        <ele>298.1500000</ele>
        <time>2009-07-12T16:37:21Z</time>
      </trkpt>
      <trkpt lat="44.3702280" lon="-93.2541060">
        <ele>298.1500000</ele>
        <time>2009-07-12T16:37:22Z</time>
      </trkpt>
      <trkpt lat="44.3701330" lon="-93.2541710">
        <ele>298.1500000</ele>
        <time>2009-07-12T16:37:23Z</time>
      </trkpt>
      <trkpt lat="44.3693520" lon="-93.2546990">
        <ele>298.6300000</ele>
        <time>2009-07-12T16:37:28Z</time>
      </trkpt>
      <trkpt lat="44.3676540" lon="-93.2558750">
        <ele>299.1100000</ele>
        <time>2009-07-12T16:37:36Z</time>
      </trkpt>
      <trkpt lat="44.3654000" lon="-93.2572390">
        <ele>298.1500000</ele>
        <time>2009-07-12T16:37:46Z</time>
      </trkpt>
      <trkpt lat="44.3633790" lon="-93.2578400">
        <ele>296.2200000</ele>
        <time>2009-07-12T16:37:55Z</time>
      </trkpt>
      <trkpt lat="44.3613530" lon="-93.2578540">
        <ele>294.7800000</ele>
        <time>2009-07-12T16:38:05Z</time>
      </trkpt>
      <trkpt lat="44.3598490" lon="-93.2577140">
        <ele>293.3400000</ele>
        <time>2009-07-12T16:38:14Z</time>
      </trkpt>
      <trkpt lat="44.3596700" lon="-93.2576900">
        <ele>293.8200000</ele>
        <time>2009-07-12T16:38:19Z</time>
      </trkpt>
      <trkpt lat="44.3596110" lon="-93.2576780">
        <ele>293.8200000</ele>
        <time>2009-07-12T16:38:21Z</time>
      </trkpt>
      <trkpt lat="44.3595750" lon="-93.2576710">
        <ele>293.3400000</ele>
        <time>2009-07-12T16:38:22Z</time>
      </trkpt>
      <trkpt lat="44.3595340" lon="-93.2574350">
        <ele>293.3400000</ele>
        <time>2009-07-12T16:38:23Z</time>
      </trkpt>
      <trkpt lat="44.3595350" lon="-93.2572650">
        <ele>293.3400000</ele>
        <time>2009-07-12T16:38:24Z</time>
      </trkpt>
      <trkpt lat="44.3595360" lon="-93.2570770">
        <ele>293.3400000</ele>
        <time>2009-07-12T16:38:25Z</time>
      </trkpt>
      <trkpt lat="44.3595490" lon="-93.2553740">
        <ele>295.2600000</ele>
        <time>2009-07-12T16:38:32Z</time>
      </trkpt>
      <trkpt lat="44.3595720" lon="-93.2523590">
        <ele>297.6700000</ele>
        <time>2009-07-12T16:38:43Z</time>
      </trkpt>
      <trkpt lat="44.3595750" lon="-93.2474230">
        <ele>306.8000000</ele>
        <time>2009-07-12T16:38:59Z</time>
      </trkpt>
      <trkpt lat="44.3595370" lon="-93.2446530">
        <ele>304.3900000</ele>
        <time>2009-07-12T16:39:10Z</time>
      </trkpt>
      <trkpt lat="44.3594670" lon="-93.2442540">
        <ele>303.9100000</ele>
        <time>2009-07-12T16:39:12Z</time>
      </trkpt>
      <trkpt lat="44.3594130" lon="-93.2440590">
        <ele>303.4300000</ele>
        <time>2009-07-12T16:39:13Z</time>
      </trkpt>
      <trkpt lat="44.3593580" lon="-93.2438590">
        <ele>302.9500000</ele>
        <time>2009-07-12T16:39:14Z</time>
      </trkpt>
      <trkpt lat="44.3593010" lon="-93.2436770">
        <ele>302.9500000</ele>
        <time>2009-07-12T16:39:15Z</time>
      </trkpt>
      <trkpt lat="44.3592220" lon="-93.2434920">
        <ele>302.4700000</ele>
        <time>2009-07-12T16:39:16Z</time>
      </trkpt>
      <trkpt lat="44.3591410" lon="-93.2433040">
        <ele>302.4700000</ele>
        <time>2009-07-12T16:39:17Z</time>
      </trkpt>
      <trkpt lat="44.3590600" lon="-93.2431150">
        <ele>302.9500000</ele>
        <time>2009-07-12T16:39:18Z</time>
      </trkpt>
      <trkpt lat="44.3589610" lon="-93.2429650">
        <ele>302.9500000</ele>
        <time>2009-07-12T16:39:19Z</time>
      </trkpt>
      <trkpt lat="44.3588510" lon="-93.2428010">
        <ele>303.4300000</ele>
        <time>2009-07-12T16:39:20Z</time>
      </trkpt>
      <trkpt lat="44.3587470" lon="-93.2426160">
        <ele>303.9100000</ele>
        <time>2009-07-12T16:39:21Z</time>
      </trkpt>
      <trkpt lat="44.3586380" lon="-93.2424920">
        <ele>304.8800000</ele>
        <time>2009-07-12T16:39:22Z</time>
      </trkpt>
      <trkpt lat="44.3585060" lon="-93.2423830">
        <ele>305.3600000</ele>
        <time>2009-07-12T16:39:23Z</time>
      </trkpt>
      <trkpt lat="44.3583780" lon="-93.2422790">
        <ele>305.3600000</ele>
        <time>2009-07-12T16:39:24Z</time>
      </trkpt>
      <trkpt lat="44.3582520" lon="-93.2421760">
        <ele>305.8400000</ele>
        <time>2009-07-12T16:39:25Z</time>
      </trkpt>
      <trkpt lat="44.3581280" lon="-93.2421340">
        <ele>305.8400000</ele>
        <time>2009-07-12T16:39:26Z</time>
      </trkpt>
      <trkpt lat="44.3579910" lon="-93.2420910">
        <ele>305.8400000</ele>
        <time>2009-07-12T16:39:27Z</time>
      </trkpt>
      <trkpt lat="44.3578520" lon="-93.2420490">
        <ele>306.8000000</ele>
        <time>2009-07-12T16:39:28Z</time>
      </trkpt>
      <trkpt lat="44.3577120" lon="-93.2420060">
        <ele>307.7600000</ele>
        <time>2009-07-12T16:39:29Z</time>
      </trkpt>
      <trkpt lat="44.3575740" lon="-93.2419660">
        <ele>308.7200000</ele>
        <time>2009-07-12T16:39:30Z</time>
      </trkpt>
      <trkpt lat="44.3574360" lon="-93.2419260">
        <ele>309.6800000</ele>
        <time>2009-07-12T16:39:31Z</time>
      </trkpt>
      <trkpt lat="44.3573030" lon="-93.2419120">
        <ele>310.1600000</ele>
        <time>2009-07-12T16:39:32Z</time>
      </trkpt>
      <trkpt lat="44.3571590" lon="-93.2419120">
        <ele>310.6400000</ele>
        <time>2009-07-12T16:39:33Z</time>
      </trkpt>
      <trkpt lat="44.3560900" lon="-93.2419120">
        <ele>315.4500000</ele>
        <time>2009-07-12T16:39:42Z</time>
      </trkpt>
      <trkpt lat="44.3544220" lon="-93.2418860">
        <ele>326.0200000</ele>
        <time>2009-07-12T16:39:56Z</time>
      </trkpt>
      <trkpt lat="44.3534370" lon="-93.2415720">
        <ele>330.8300000</ele>
        <time>2009-07-12T16:40:03Z</time>
      </trkpt>
      <trkpt lat="44.3526470" lon="-93.2405140">
        <ele>334.6800000</ele>
        <time>2009-07-12T16:40:10Z</time>
      </trkpt>
      <trkpt lat="44.3522640" lon="-93.2396440">
        <ele>335.6400000</ele>
        <time>2009-07-12T16:40:14Z</time>
      </trkpt>
      <trkpt lat="44.3522360" lon="-93.2393810">
        <ele>335.6400000</ele>
        <time>2009-07-12T16:40:15Z</time>
      </trkpt>
      <trkpt lat="44.3522320" lon="-93.2391230">
        <ele>335.6400000</ele>
        <time>2009-07-12T16:40:16Z</time>
      </trkpt>
      <trkpt lat="44.3522270" lon="-93.2388630">
        <ele>335.6400000</ele>
        <time>2009-07-12T16:40:17Z</time>
      </trkpt>
      <trkpt lat="44.3522230" lon="-93.2386020">
        <ele>335.6400000</ele>
        <time>2009-07-12T16:40:18Z</time>
      </trkpt>
      <trkpt lat="44.3521930" lon="-93.2344950">
        <ele>326.0200000</ele>
        <time>2009-07-12T16:40:33Z</time>
      </trkpt>
      <trkpt lat="44.3521930" lon="-93.2299140">
        <ele>324.5800000</ele>
        <time>2009-07-12T16:40:49Z</time>
      </trkpt>
      <trkpt lat="44.3521790" lon="-93.2236740">
        <ele>336.1200000</ele>
        <time>2009-07-12T16:41:11Z</time>
      </trkpt>
      <trkpt lat="44.3520230" lon="-93.2210170">
        <ele>334.6800000</ele>
        <time>2009-07-12T16:41:21Z</time>
      </trkpt>
      <trkpt lat="44.3519270" lon="-93.2207980">
        <ele>334.2000000</ele>
        <time>2009-07-12T16:41:22Z</time>
      </trkpt>
      <trkpt lat="44.3518270" lon="-93.2205750">
        <ele>334.2000000</ele>
        <time>2009-07-12T16:41:23Z</time>
      </trkpt>
      <trkpt lat="44.3517300" lon="-93.2203550">
        <ele>334.2000000</ele>
        <time>2009-07-12T16:41:24Z</time>
      </trkpt>
      <trkpt lat="44.3516280" lon="-93.2201560">
        <ele>334.2000000</ele>
        <time>2009-07-12T16:41:25Z</time>
      </trkpt>
      <trkpt lat="44.3515120" lon="-93.2199630">
        <ele>334.6800000</ele>
        <time>2009-07-12T16:41:26Z</time>
      </trkpt>
      <trkpt lat="44.3513970" lon="-93.2197890">
        <ele>334.6800000</ele>
        <time>2009-07-12T16:41:27Z</time>
      </trkpt>
      <trkpt lat="44.3512440" lon="-93.2196510">
        <ele>335.1600000</ele>
        <time>2009-07-12T16:41:28Z</time>
      </trkpt>
      <trkpt lat="44.3510930" lon="-93.2195160">
        <ele>335.1600000</ele>
        <time>2009-07-12T16:41:29Z</time>
      </trkpt>
      <trkpt lat="44.3509480" lon="-93.2194120">
        <ele>334.6800000</ele>
        <time>2009-07-12T16:41:30Z</time>
      </trkpt>
      <trkpt lat="44.3507700" lon="-93.2193620">
        <ele>334.6800000</ele>
        <time>2009-07-12T16:41:31Z</time>
      </trkpt>
      <trkpt lat="44.3505830" lon="-93.2193100">
        <ele>335.1600000</ele>
        <time>2009-07-12T16:41:32Z</time>
      </trkpt>
      <trkpt lat="44.3503910" lon="-93.2192560">
        <ele>335.1600000</ele>
        <time>2009-07-12T16:41:33Z</time>
      </trkpt>
      <trkpt lat="44.3501940" lon="-93.2192010">
        <ele>335.1600000</ele>
        <time>2009-07-12T16:41:34Z</time>
      </trkpt>
      <trkpt lat="44.3499950" lon="-93.2191450">
        <ele>335.6400000</ele>
        <time>2009-07-12T16:41:35Z</time>
      </trkpt>
      <trkpt lat="44.3471310" lon="-93.2186060">
        <ele>332.2700000</ele>
        <time>2009-07-12T16:41:50Z</time>
      </trkpt>
      <trkpt lat="44.3445120" lon="-93.2183710">
        <ele>334.2000000</ele>
        <time>2009-07-12T16:42:03Z</time>
      </trkpt>
      <trkpt lat="44.3424250" lon="-93.2182390">
        <ele>331.7900000</ele>
        <time>2009-07-12T16:42:13Z</time>
      </trkpt>
      <trkpt lat="44.3422270" lon="-93.2181520">
        <ele>331.7900000</ele>
        <time>2009-07-12T16:42:14Z</time>
      </trkpt>
      <trkpt lat="44.3420430" lon="-93.2180130">
        <ele>331.7900000</ele>
        <time>2009-07-12T16:42:15Z</time>
      </trkpt>
      <trkpt lat="44.3418660" lon="-93.2178690">
        <ele>331.3100000</ele>
        <time>2009-07-12T16:42:16Z</time>
      </trkpt>
      <trkpt lat="44.3417010" lon="-93.2177210">
        <ele>329.8700000</ele>
        <time>2009-07-12T16:42:17Z</time>
      </trkpt>
      <trkpt lat="44.3415590" lon="-93.2175190">
        <ele>329.8700000</ele>
        <time>2009-07-12T16:42:18Z</time>
      </trkpt>
      <trkpt lat="44.3414050" lon="-93.2173000">
        <ele>329.3900000</ele>
        <time>2009-07-12T16:42:19Z</time>
      </trkpt>
      <trkpt lat="44.3412520" lon="-93.2170820">
        <ele>329.8700000</ele>
        <time>2009-07-12T16:42:20Z</time>
      </trkpt>
      <trkpt lat="44.3395580" lon="-93.2143060">
        <ele>340.9200000</ele>
        <time>2009-07-12T16:42:32Z</time>
      </trkpt>
      <trkpt lat="44.3372810" lon="-93.2092960">
        <ele>355.3400000</ele>
        <time>2009-07-12T16:42:52Z</time>
      </trkpt>
      <trkpt lat="44.3361100" lon="-93.2070650">
        <ele>357.7500000</ele>
        <time>2009-07-12T16:43:02Z</time>
      </trkpt>
      <trkpt lat="44.3355520" lon="-93.2058090">
        <ele>355.8300000</ele>
        <time>2009-07-12T16:43:09Z</time>
      </trkpt>
      <trkpt lat="44.3353410" lon="-93.2053350">
        <ele>354.3800000</ele>
        <time>2009-07-12T16:43:15Z</time>
      </trkpt>
      <trkpt lat="44.3351710" lon="-93.2049520">
        <ele>352.9400000</ele>
        <time>2009-07-12T16:43:25Z</time>
      </trkpt>
      <trkpt lat="44.3349750" lon="-93.2045140">
        <ele>351.5000000</ele>
        <time>2009-07-12T16:43:34Z</time>
      </trkpt>
      <trkpt lat="44.3349040" lon="-93.2046130">
        <ele>351.0200000</ele>
        <time>2009-07-12T16:43:35Z</time>
      </trkpt>
      <trkpt lat="44.3348310" lon="-93.2046860">
        <ele>351.0200000</ele>
        <time>2009-07-12T16:43:36Z</time>
      </trkpt>
      <trkpt lat="44.3347560" lon="-93.2047610">
        <ele>351.5000000</ele>
        <time>2009-07-12T16:43:37Z</time>
      </trkpt>
      <trkpt lat="44.3346770" lon="-93.2048400">
        <ele>351.5000000</ele>
        <time>2009-07-12T16:43:38Z</time>
      </trkpt>
      <trkpt lat="44.3341310" lon="-93.2056660">
        <ele>352.9400000</ele>
        <time>2009-07-12T16:43:44Z</time>
      </trkpt>
      <trkpt lat="44.3326990" lon="-93.2076550">
        <ele>354.8600000</ele>
        <time>2009-07-12T16:43:58Z</time>
      </trkpt>
      <trkpt lat="44.3309770" lon="-93.2095230">
        <ele>358.7100000</ele>
        <time>2009-07-12T16:44:15Z</time>
      </trkpt>
      <trkpt lat="44.3294750" lon="-93.2111060">
        <ele>365.4400000</ele>
        <time>2009-07-12T16:44:30Z</time>
      </trkpt>
      <trkpt lat="44.3282380" lon="-93.2124620">
        <ele>365.9200000</ele>
        <time>2009-07-12T16:44:44Z</time>
      </trkpt>
      <trkpt lat="44.3263460" lon="-93.2145020">
        <ele>366.4000000</ele>
        <time>2009-07-12T16:45:01Z</time>
      </trkpt>
      <trkpt lat="44.3248640" lon="-93.2160690">
        <ele>365.9200000</ele>
        <time>2009-07-12T16:45:12Z</time>
      </trkpt>
      <trkpt lat="44.3235600" lon="-93.2177420">
        <ele>364.4800000</ele>
        <time>2009-07-12T16:45:20Z</time>
      </trkpt>
      <trkpt lat="44.3223310" lon="-93.2202860">
        <ele>370.2400000</ele>
        <time>2009-07-12T16:45:31Z</time>
      </trkpt>
      <trkpt lat="44.3215900" lon="-93.2216980">
        <ele>367.3600000</ele>
        <time>2009-07-12T16:45:39Z</time>
      </trkpt>
      <trkpt lat="44.3203480" lon="-93.2232960">
        <ele>351.0200000</ele>
        <time>2009-07-12T16:45:49Z</time>
      </trkpt>
      <trkpt lat="44.3181930" lon="-93.2259830">
        <ele>338.5200000</ele>
        <time>2009-07-12T16:46:06Z</time>
      </trkpt>
      <trkpt lat="44.3170360" lon="-93.2279650">
        <ele>338.0400000</ele>
        <time>2009-07-12T16:46:16Z</time>
      </trkpt>
      <trkpt lat="44.3155240" lon="-93.2309360">
        <ele>339.0000000</ele>
        <time>2009-07-12T16:46:29Z</time>
      </trkpt>
      <trkpt lat="44.3143530" lon="-93.2326920">
        <ele>334.2000000</ele>
        <time>2009-07-12T16:46:36Z</time>
      </trkpt>
      <trkpt lat="44.3130100" lon="-93.2338670">
        <ele>341.8900000</ele>
        <time>2009-07-12T16:46:43Z</time>
      </trkpt>
      <trkpt lat="44.3110840" lon="-93.2354950">
        <ele>352.9400000</ele>
        <time>2009-07-12T16:46:55Z</time>
      </trkpt>
      <trkpt lat="44.3095230" lon="-93.2362890">
        <ele>350.5400000</ele>
        <time>2009-07-12T16:47:03Z</time>
      </trkpt>
      <trkpt lat="44.3075370" lon="-93.2371650">
        <ele>351.9800000</ele>
        <time>2009-07-12T16:47:14Z</time>
      </trkpt>
      <trkpt lat="44.3063260" lon="-93.2383040">
        <ele>358.7100000</ele>
        <time>2009-07-12T16:47:22Z</time>
      </trkpt>
      <trkpt lat="44.3045320" lon="-93.2408010">
        <ele>364.0000000</ele>
        <time>2009-07-12T16:47:35Z</time>
      </trkpt>
      <trkpt lat="44.3023190" lon="-93.2439340">
        <ele>363.5200000</ele>
        <time>2009-07-12T16:47:51Z</time>
      </trkpt>
      <trkpt lat="44.3018460" lon="-93.2446230">
        <ele>365.4400000</ele>
        <time>2009-07-12T16:47:57Z</time>
      </trkpt>
      <trkpt lat="44.3007980" lon="-93.2461040">
        <ele>364.0000000</ele>
        <time>2009-07-12T16:48:10Z</time>
      </trkpt>
      <trkpt lat="44.3001520" lon="-93.2469840">
        <ele>363.0400000</ele>
        <time>2009-07-12T16:48:20Z</time>
      </trkpt>
      <trkpt lat="44.3001060" lon="-93.2470450">
        <ele>362.5500000</ele>
        <time>2009-07-12T16:48:21Z</time>
      </trkpt>
      <trkpt lat="44.3000770" lon="-93.2470860">
        <ele>363.0400000</ele>
        <time>2009-07-12T16:48:22Z</time>
      </trkpt>
      <trkpt lat="44.3001720" lon="-93.2473570">
        <ele>363.0400000</ele>
        <time>2009-07-12T16:48:23Z</time>
      </trkpt>
      <trkpt lat="44.3002050" lon="-93.2474810">
        <ele>363.0400000</ele>
        <time>2009-07-12T16:48:24Z</time>
      </trkpt>
      <trkpt lat="44.3002410" lon="-93.2476170">
        <ele>363.0400000</ele>
        <time>2009-07-12T16:48:25Z</time>
      </trkpt>
      <trkpt lat="44.3002790" lon="-93.2477590">
        <ele>363.0400000</ele>
        <time>2009-07-12T16:48:26Z</time>
      </trkpt>
      <trkpt lat="44.3007020" lon="-93.2493580">
        <ele>364.9600000</ele>
        <time>2009-07-12T16:48:35Z</time>
      </trkpt>
      <trkpt lat="44.3010640" lon="-93.2515760">
        <ele>353.9000000</ele>
        <time>2009-07-12T16:48:47Z</time>
      </trkpt>
      <trkpt lat="44.3007950" lon="-93.2529440">
        <ele>345.7300000</ele>
        <time>2009-07-12T16:48:55Z</time>
      </trkpt>
      <trkpt lat="44.3000890" lon="-93.2539930">
        <ele>336.6000000</ele>
        <time>2009-07-12T16:49:03Z</time>
      </trkpt>
      <trkpt lat="44.2993140" lon="-93.2554330">
        <ele>331.3100000</ele>
        <time>2009-07-12T16:49:14Z</time>
      </trkpt>
      <trkpt lat="44.2992760" lon="-93.2561710">
        <ele>330.3500000</ele>
        <time>2009-07-12T16:49:21Z</time>
      </trkpt>
      <trkpt lat="44.2992620" lon="-93.2566440">
        <ele>329.3900000</ele>
        <time>2009-07-12T16:49:32Z</time>
      </trkpt>
      <trkpt lat="44.2992590" lon="-93.2567590">
        <ele>330.3500000</ele>
        <time>2009-07-12T16:49:50Z</time>
      </trkpt>
      <trkpt lat="44.2992440" lon="-93.2572670">
        <ele>329.8700000</ele>
        <time>2009-07-12T16:50:03Z</time>
      </trkpt>
      <trkpt lat="44.2992360" lon="-93.2575330">
        <ele>329.3900000</ele>
        <time>2009-07-12T16:50:12Z</time>
      </trkpt>
      <trkpt lat="44.2992360" lon="-93.2575330">
        <ele>329.3900000</ele>
        <time>2009-07-12T16:50:13Z</time>
      </trkpt>
      <trkpt lat="44.2991670" lon="-93.2575400">
        <ele>328.9100000</ele>
        <time>2009-07-12T16:50:14Z</time>
      </trkpt>
      <trkpt lat="44.2990900" lon="-93.2575470">
        <ele>328.9100000</ele>
        <time>2009-07-12T16:50:15Z</time>
      </trkpt>
      <trkpt lat="44.2990050" lon="-93.2575550">
        <ele>328.9100000</ele>
        <time>2009-07-12T16:50:16Z</time>
      </trkpt>
      <trkpt lat="44.2983660" lon="-93.2576160">
        <ele>330.8300000</ele>
        <time>2009-07-12T16:50:25Z</time>
      </trkpt>
      <trkpt lat="44.2983430" lon="-93.2576180">
        <ele>331.3100000</ele>
        <time>2009-07-12T16:50:26Z</time>
      </trkpt>
      <trkpt lat="44.2983350" lon="-93.2576710">
        <ele>331.3100000</ele>
        <time>2009-07-12T16:50:27Z</time>
      </trkpt>
      <trkpt lat="44.2983350" lon="-93.2577110">
        <ele>331.3100000</ele>
        <time>2009-07-12T16:50:28Z</time>
      </trkpt>
      <trkpt lat="44.2983350" lon="-93.2577610">
        <ele>331.3100000</ele>
        <time>2009-07-12T16:50:29Z</time>
      </trkpt>
      <trkpt lat="44.2983350" lon="-93.2578250">
        <ele>331.3100000</ele>
        <time>2009-07-12T16:50:30Z</time>
      </trkpt>
      <trkpt lat="44.2983350" lon="-93.2580870">
        <ele>329.8700000</ele>
        <time>2009-07-12T16:50:33Z</time>
      </trkpt>
      <trkpt lat="44.2983550" lon="-93.2581950">
        <ele>329.3900000</ele>
        <time>2009-07-12T16:50:34Z</time>
      </trkpt>
      <trkpt lat="44.2983960" lon="-93.2582910">
        <ele>328.9100000</ele>
        <time>2009-07-12T16:50:35Z</time>
      </trkpt>
      <trkpt lat="44.2984480" lon="-93.2583680">
        <ele>328.4300000</ele>
        <time>2009-07-12T16:50:36Z</time>
      </trkpt>
      <trkpt lat="44.2985130" lon="-93.2584220">
        <ele>327.9500000</ele>
        <time>2009-07-12T16:50:37Z</time>
      </trkpt>
      <trkpt lat="44.2985740" lon="-93.2584590">
        <ele>327.4700000</ele>
        <time>2009-07-12T16:50:38Z</time>
      </trkpt>
      <trkpt lat="44.2986440" lon="-93.2585020">
        <ele>327.4700000</ele>
        <time>2009-07-12T16:50:39Z</time>
      </trkpt>
      <trkpt lat="44.2987110" lon="-93.2585430">
        <ele>326.9900000</ele>
        <time>2009-07-12T16:50:40Z</time>
      </trkpt>
      <trkpt lat="44.2995420" lon="-93.2590040">
        <ele>326.5000000</ele>
        <time>2009-07-12T16:50:54Z</time>
      </trkpt>
      <trkpt lat="44.3001350" lon="-93.2592760">
        <ele>331.7900000</ele>
        <time>2009-07-12T16:51:05Z</time>
      </trkpt>
      <trkpt lat="44.3001780" lon="-93.2592950">
        <ele>331.7900000</ele>
        <time>2009-07-12T16:51:06Z</time>
      </trkpt>
      <trkpt lat="44.3002180" lon="-93.2593140">
        <ele>332.2700000</ele>
        <time>2009-07-12T16:51:07Z</time>
      </trkpt>
      <trkpt lat="44.3002290" lon="-93.2593190">
        <ele>332.2700000</ele>
        <time>2009-07-12T16:51:08Z</time>
      </trkpt>
      <trkpt lat="44.3003220" lon="-93.2592010">
        <ele>332.7500000</ele>
        <time>2009-07-12T16:51:18Z</time>
      </trkpt>
      <trkpt lat="44.3003520" lon="-93.2591300">
        <ele>333.2300000</ele>
        <time>2009-07-12T16:51:30Z</time>
      </trkpt>
      <trkpt lat="44.3005170" lon="-93.2587660">
        <ele>330.3500000</ele>
        <time>2009-07-12T16:51:41Z</time>
      </trkpt>
      <trkpt lat="44.3007860" lon="-93.2585580">
        <ele>329.3900000</ele>
        <time>2009-07-12T16:51:52Z</time>
      </trkpt>
      <trkpt lat="44.3012990" lon="-93.2585370">
        <ele>331.7900000</ele>
        <time>2009-07-12T16:52:06Z</time>
      </trkpt>
      <trkpt lat="44.3016220" lon="-93.2585250">
        <ele>334.2000000</ele>
        <time>2009-07-12T16:52:18Z</time>
      </trkpt>
      <trkpt lat="44.3018310" lon="-93.2585860">
        <ele>333.7100000</ele>
        <time>2009-07-12T16:52:23Z</time>
      </trkpt>
      <trkpt lat="44.3018730" lon="-93.2586340">
        <ele>333.2300000</ele>
        <time>2009-07-12T16:52:24Z</time>
      </trkpt>
      <trkpt lat="44.3019160" lon="-93.2586830">
        <ele>332.7500000</ele>
        <time>2009-07-12T16:52:25Z</time>
      </trkpt>
      <trkpt lat="44.3019610" lon="-93.2587350">
        <ele>332.7500000</ele>
        <time>2009-07-12T16:52:26Z</time>
      </trkpt>
      <trkpt lat="44.3020060" lon="-93.2587860">
        <ele>332.2700000</ele>
        <time>2009-07-12T16:52:27Z</time>
      </trkpt>
      <trkpt lat="44.3020840" lon="-93.2588750">
        <ele>331.3100000</ele>
        <time>2009-07-12T16:52:29Z</time>
      </trkpt>
      <trkpt lat="44.3021120" lon="-93.2589410">
        <ele>331.3100000</ele>
        <time>2009-07-12T16:52:30Z</time>
      </trkpt>
      <trkpt lat="44.3021140" lon="-93.2590100">
        <ele>331.3100000</ele>
        <time>2009-07-12T16:52:31Z</time>
      </trkpt>
      <trkpt lat="44.3021160" lon="-93.2590840">
        <ele>330.8300000</ele>
        <time>2009-07-12T16:52:32Z</time>
      </trkpt>
      <trkpt lat="44.3021180" lon="-93.2591620">
        <ele>330.8300000</ele>
        <time>2009-07-12T16:52:33Z</time>
      </trkpt>
      <trkpt lat="44.3021200" lon="-93.2592450">
        <ele>330.8300000</ele>
        <time>2009-07-12T16:52:34Z</time>
      </trkpt>
      <trkpt lat="44.3021220" lon="-93.2593150">
        <ele>330.8300000</ele>
        <time>2009-07-12T16:52:35Z</time>
      </trkpt>
      <trkpt lat="44.3021330" lon="-93.2597100">
        <ele>329.8700000</ele>
        <time>2009-07-12T16:52:46Z</time>
      </trkpt>
      <trkpt lat="44.3021530" lon="-93.2604670">
        <ele>327.9500000</ele>
        <time>2009-07-12T16:52:56Z</time>
      </trkpt>
      <trkpt lat="44.3021540" lon="-93.2612440">
        <ele>326.0200000</ele>
        <time>2009-07-12T16:53:03Z</time>
      </trkpt>
      <trkpt lat="44.3021540" lon="-93.2613360">
        <ele>325.5400000</ele>
        <time>2009-07-12T16:53:04Z</time>
      </trkpt>
      <trkpt lat="44.3021540" lon="-93.2614130">
        <ele>325.5400000</ele>
        <time>2009-07-12T16:53:05Z</time>
      </trkpt>
      <trkpt lat="44.3021540" lon="-93.2614640">
        <ele>325.0600000</ele>
        <time>2009-07-12T16:53:06Z</time>
      </trkpt>
      <trkpt lat="44.3020200" lon="-93.2614390">
        <ele>324.5800000</ele>
        <time>2009-07-12T16:53:07Z</time>
      </trkpt>
      <trkpt lat="44.3019760" lon="-93.2614390">
        <ele>324.1000000</ele>
        <time>2009-07-12T16:53:08Z</time>
      </trkpt>
      <trkpt lat="44.3019400" lon="-93.2614390">
        <ele>323.6200000</ele>
        <time>2009-07-12T16:53:09Z</time>
      </trkpt>
      <trkpt lat="44.3015790" lon="-93.2614390">
        <ele>320.7400000</ele>
        <time>2009-07-12T16:53:22Z</time>
      </trkpt>
      <trkpt lat="44.3013460" lon="-93.2614390">
        <ele>318.8100000</ele>
        <time>2009-07-12T16:53:32Z</time>
      </trkpt>
      <trkpt lat="44.3012990" lon="-93.2614390">
        <ele>318.3300000</ele>
        <time>2009-07-12T16:53:33Z</time>
      </trkpt>
      <trkpt lat="44.3012460" lon="-93.2614390">
        <ele>318.8100000</ele>
        <time>2009-07-12T16:53:34Z</time>
      </trkpt>
      <trkpt lat="44.3011930" lon="-93.2614390">
        <ele>319.7800000</ele>
        <time>2009-07-12T16:53:35Z</time>
      </trkpt>
      <trkpt lat="44.3011460" lon="-93.2614390">
        <ele>320.7400000</ele>
        <time>2009-07-12T16:53:36Z</time>
      </trkpt>
      <trkpt lat="44.3010990" lon="-93.2614390">
        <ele>321.7000000</ele>
        <time>2009-07-12T16:53:37Z</time>
      </trkpt>
      <trkpt lat="44.3006610" lon="-93.2609670">
        <ele>323.1400000</ele>
        <time>2009-07-12T16:53:47Z</time>
      </trkpt>
      <trkpt lat="44.3004500" lon="-93.2603400">
        <ele>323.6200000</ele>
        <time>2009-07-12T16:53:56Z</time>
      </trkpt>
      <trkpt lat="44.3003270" lon="-93.2600640">
        <ele>326.9900000</ele>
        <time>2009-07-12T16:54:04Z</time>
      </trkpt>
      <trkpt lat="44.3002600" lon="-93.2597530">
        <ele>326.0200000</ele>
        <time>2009-07-12T16:54:07Z</time>
      </trkpt>
      <trkpt lat="44.3002420" lon="-93.2596570">
        <ele>326.0200000</ele>
        <time>2009-07-12T16:54:08Z</time>
      </trkpt>
      <trkpt lat="44.3002270" lon="-93.2595730">
        <ele>326.0200000</ele>
        <time>2009-07-12T16:54:09Z</time>
      </trkpt>
      <trkpt lat="44.3002540" lon="-93.2593930">
        <ele>326.0200000</ele>
        <time>2009-07-12T16:54:11Z</time>
      </trkpt>
      <trkpt lat="44.3002660" lon="-93.2593360">
        <ele>326.5000000</ele>
        <time>2009-07-12T16:54:12Z</time>
      </trkpt>
      <trkpt lat="44.3001740" lon="-93.2592940">
        <ele>326.5000000</ele>
        <time>2009-07-12T16:54:13Z</time>
      </trkpt>
      <trkpt lat="44.3001180" lon="-93.2592680">
        <ele>326.5000000</ele>
        <time>2009-07-12T16:54:14Z</time>
      </trkpt>
      <trkpt lat="44.3000600" lon="-93.2592410">
        <ele>325.5400000</ele>
        <time>2009-07-12T16:54:15Z</time>
      </trkpt>
      <trkpt lat="44.2999910" lon="-93.2592100">
        <ele>325.0600000</ele>
        <time>2009-07-12T16:54:16Z</time>
      </trkpt>
      <trkpt lat="44.2998370" lon="-93.2591390">
        <ele>323.1400000</ele>
        <time>2009-07-12T16:54:18Z</time>
      </trkpt>
      <trkpt lat="44.2997460" lon="-93.2590980">
        <ele>322.6600000</ele>
        <time>2009-07-12T16:54:19Z</time>
      </trkpt>
      <trkpt lat="44.2996510" lon="-93.2590540">
        <ele>322.1800000</ele>
        <time>2009-07-12T16:54:20Z</time>
      </trkpt>
      <trkpt lat="44.2991360" lon="-93.2588030">
        <ele>319.3000000</ele>
        <time>2009-07-12T16:54:25Z</time>
      </trkpt>
      <trkpt lat="44.2985080" lon="-93.2584190">
        <ele>320.2600000</ele>
        <time>2009-07-12T16:54:32Z</time>
      </trkpt>
      <trkpt lat="44.2983800" lon="-93.2582670">
        <ele>320.7400000</ele>
        <time>2009-07-12T16:54:34Z</time>
      </trkpt>
      <trkpt lat="44.2983430" lon="-93.2581580">
        <ele>321.7000000</ele>
        <time>2009-07-12T16:54:35Z</time>
      </trkpt>
      <trkpt lat="44.2983350" lon="-93.2580400">
        <ele>322.6600000</ele>
        <time>2009-07-12T16:54:36Z</time>
      </trkpt>
      <trkpt lat="44.2983350" lon="-93.2579530">
        <ele>324.1000000</ele>
        <time>2009-07-12T16:54:37Z</time>
      </trkpt>
      <trkpt lat="44.2983350" lon="-93.2578970">
        <ele>325.0600000</ele>
        <time>2009-07-12T16:54:38Z</time>
      </trkpt>
      <trkpt lat="44.2983350" lon="-93.2577730">
        <ele>328.9100000</ele>
        <time>2009-07-12T16:54:45Z</time>
      </trkpt>
      <trkpt lat="44.2983350" lon="-93.2576390">
        <ele>330.8300000</ele>
        <time>2009-07-12T16:54:48Z</time>
      </trkpt>
      <trkpt lat="44.2982800" lon="-93.2576190">
        <ele>330.8300000</ele>
        <time>2009-07-12T16:54:49Z</time>
      </trkpt>
      <trkpt lat="44.2982200" lon="-93.2576190">
        <ele>330.8300000</ele>
        <time>2009-07-12T16:54:50Z</time>
      </trkpt>
      <trkpt lat="44.2981400" lon="-93.2576190">
        <ele>330.3500000</ele>
        <time>2009-07-12T16:54:51Z</time>
      </trkpt>
      <trkpt lat="44.2980530" lon="-93.2576190">
        <ele>329.3900000</ele>
        <time>2009-07-12T16:54:52Z</time>
      </trkpt>
      <trkpt lat="44.2971230" lon="-93.2576190">
        <ele>324.5800000</ele>
        <time>2009-07-12T16:55:00Z</time>
      </trkpt>
      <trkpt lat="44.2953400" lon="-93.2576020">
        <ele>320.2600000</ele>
        <time>2009-07-12T16:55:17Z</time>
      </trkpt>
      <trkpt lat="44.2947480" lon="-93.2575810">
        <ele>319.7800000</ele>
        <time>2009-07-12T16:55:27Z</time>
      </trkpt>
      <trkpt lat="44.2945930" lon="-93.2576220">
        <ele>318.3300000</ele>
        <time>2009-07-12T16:55:32Z</time>
      </trkpt>
      <trkpt lat="44.2945800" lon="-93.2576910">
        <ele>317.8500000</ele>
        <time>2009-07-12T16:55:33Z</time>
      </trkpt>
      <trkpt lat="44.2945660" lon="-93.2577710">
        <ele>317.3700000</ele>
        <time>2009-07-12T16:55:34Z</time>
      </trkpt>
      <trkpt lat="44.2944420" lon="-93.2585980">
        <ele>314.4900000</ele>
        <time>2009-07-12T16:55:42Z</time>
      </trkpt>
      <trkpt lat="44.2944520" lon="-93.2586580">
        <ele>315.4500000</ele>
        <time>2009-07-12T16:55:43Z</time>
      </trkpt>
      <trkpt lat="44.2944600" lon="-93.2587030">
        <ele>314.9700000</ele>
        <time>2009-07-12T16:55:44Z</time>
      </trkpt>
      <trkpt lat="44.2944660" lon="-93.2587420">
        <ele>314.9700000</ele>
        <time>2009-07-12T16:55:45Z</time>
      </trkpt>
      <trkpt lat="44.2944770" lon="-93.2587880">
        <ele>314.0100000</ele>
        <time>2009-07-12T16:55:46Z</time>
      </trkpt>
      <trkpt lat="44.2945410" lon="-93.2589150">
        <ele>315.4500000</ele>
        <time>2009-07-12T16:55:51Z</time>
      </trkpt>
      <trkpt lat="44.2946870" lon="-93.2593790">
        <ele>314.9700000</ele>
        <time>2009-07-12T16:55:56Z</time>
      </trkpt>
      <trkpt lat="44.2946790" lon="-93.2594440">
        <ele>314.9700000</ele>
        <time>2009-07-12T16:55:57Z</time>
      </trkpt>
      <trkpt lat="44.2946620" lon="-93.2595910">
        <ele>314.4900000</ele>
        <time>2009-07-12T16:55:58Z</time>
      </trkpt>
      <trkpt lat="44.2946430" lon="-93.2597480">
        <ele>314.0100000</ele>
        <time>2009-07-12T16:55:59Z</time>
      </trkpt>
      <trkpt lat="44.2946240" lon="-93.2599080">
        <ele>312.0900000</ele>
        <time>2009-07-12T16:56:00Z</time>
      </trkpt>
      <trkpt lat="44.2946050" lon="-93.2600700">
        <ele>311.6000000</ele>
        <time>2009-07-12T16:56:01Z</time>
      </trkpt>
      <trkpt lat="44.2945730" lon="-93.2602050">
        <ele>311.1200000</ele>
        <time>2009-07-12T16:56:02Z</time>
      </trkpt>
      <trkpt lat="44.2945290" lon="-93.2603600">
        <ele>310.6400000</ele>
        <time>2009-07-12T16:56:03Z</time>
      </trkpt>
      <trkpt lat="44.2941890" lon="-93.2614340">
        <ele>307.7600000</ele>
        <time>2009-07-12T16:56:10Z</time>
      </trkpt>
      <trkpt lat="44.2941730" lon="-93.2615960">
        <ele>307.2800000</ele>
        <time>2009-07-12T16:56:11Z</time>
      </trkpt>
      <trkpt lat="44.2941410" lon="-93.2619170">
        <ele>305.8400000</ele>
        <time>2009-07-12T16:56:13Z</time>
      </trkpt>
      <trkpt lat="44.2941290" lon="-93.2620390">
        <ele>304.8800000</ele>
        <time>2009-07-12T16:56:14Z</time>
      </trkpt>
      <trkpt lat="44.2940540" lon="-93.2621590">
        <ele>301.9900000</ele>
        <time>2009-07-12T16:56:15Z</time>
      </trkpt>
      <trkpt lat="44.2939740" lon="-93.2622870">
        <ele>300.0700000</ele>
        <time>2009-07-12T16:56:16Z</time>
      </trkpt>
      <trkpt lat="44.2939000" lon="-93.2624060">
        <ele>299.5900000</ele>
        <time>2009-07-12T16:56:17Z</time>
      </trkpt>
      <trkpt lat="44.2938300" lon="-93.2625180">
        <ele>298.6300000</ele>
        <time>2009-07-12T16:56:18Z</time>
      </trkpt>
      <trkpt lat="44.2937660" lon="-93.2626200">
        <ele>298.1500000</ele>
        <time>2009-07-12T16:56:19Z</time>
      </trkpt>
      <trkpt lat="44.2936910" lon="-93.2628990">
        <ele>295.2600000</ele>
        <time>2009-07-12T16:56:21Z</time>
      </trkpt>
      <trkpt lat="44.2936850" lon="-93.2630440">
        <ele>294.3000000</ele>
        <time>2009-07-12T16:56:22Z</time>
      </trkpt>
      <trkpt lat="44.2936780" lon="-93.2631890">
        <ele>292.8600000</ele>
        <time>2009-07-12T16:56:23Z</time>
      </trkpt>
      <trkpt lat="44.2936570" lon="-93.2648060">
        <ele>293.8200000</ele>
        <time>2009-07-12T16:56:35Z</time>
      </trkpt>
      <trkpt lat="44.2936570" lon="-93.2655630">
        <ele>294.3000000</ele>
        <time>2009-07-12T16:56:47Z</time>
      </trkpt>
      <trkpt lat="44.2936570" lon="-93.2657510">
        <ele>294.7800000</ele>
        <time>2009-07-12T16:56:57Z</time>
      </trkpt>
      <trkpt lat="44.2936570" lon="-93.2658130">
        <ele>294.3000000</ele>
        <time>2009-07-12T16:56:58Z</time>
      </trkpt>
      <trkpt lat="44.2936570" lon="-93.2658360">
        <ele>294.7800000</ele>
        <time>2009-07-12T16:56:59Z</time>
      </trkpt>
      <trkpt lat="44.2936570" lon="-93.2658570">
        <ele>294.7800000</ele>
        <time>2009-07-12T16:57:00Z</time>
      </trkpt>
      <trkpt lat="44.2936570" lon="-93.2657730">
        <ele>294.3000000</ele>
        <time>2009-07-12T16:57:01Z</time>
      </trkpt>
      <trkpt lat="44.2936570" lon="-93.2657730">
        <ele>295.2600000</ele>
        <time>2009-07-12T16:57:02Z</time>
      </trkpt>
      <trkpt lat="44.2936570" lon="-93.2657730">
        <ele>295.2600000</ele>
        <time>2009-07-12T16:57:03Z</time>
      </trkpt>
      <trkpt lat="44.2936570" lon="-93.2657730">
        <ele>295.2600000</ele>
        <time>2009-07-12T16:57:04Z</time>
      </trkpt>
      <trkpt lat="44.2927770" lon="-93.2657830">
        <ele>295.7400000</ele>
        <time>2009-07-12T16:57:13Z</time>
      </trkpt>
      <trkpt lat="44.2925230" lon="-93.2658230">
        <ele>296.7000000</ele>
        <time>2009-07-12T16:57:16Z</time>
      </trkpt>
      <trkpt lat="44.2925210" lon="-93.2658790">
        <ele>297.1800000</ele>
        <time>2009-07-12T16:57:18Z</time>
      </trkpt>
      <trkpt lat="44.2921220" lon="-93.2659240">
        <ele>295.7400000</ele>
        <time>2009-07-12T16:57:29Z</time>
      </trkpt>
      <trkpt lat="44.2920870" lon="-93.2659250">
        <ele>295.2600000</ele>
        <time>2009-07-12T16:57:30Z</time>
      </trkpt>
      <trkpt lat="44.2919310" lon="-93.2661180">
        <ele>293.8200000</ele>
        <time>2009-07-12T16:57:39Z</time>
      </trkpt>
      <trkpt lat="44.2918300" lon="-93.2667770">
        <ele>293.8200000</ele>
        <time>2009-07-12T16:57:41Z</time>
      </trkpt>
      <trkpt lat="44.2913820" lon="-93.2664710">
        <ele>293.3400000</ele>
        <time>2009-07-12T16:57:54Z</time>
      </trkpt>
      <trkpt lat="44.2913820" lon="-93.2664770">
        <ele>293.3400000</ele>
        <time>2009-07-12T16:57:55Z</time>
      </trkpt>
      <trkpt lat="44.2913820" lon="-93.2664770">
        <ele>295.7400000</ele>
        <time>2009-07-12T16:58:14Z</time>
      </trkpt>
      <trkpt lat="44.2913820" lon="-93.2664770">
        <ele>296.2200000</ele>
        <time>2009-07-12T16:58:46Z</time>
      </trkpt>
      <trkpt lat="44.2918930" lon="-93.2667800">
        <ele>282.7700000</ele>
        <time>2009-07-12T19:00:26Z</time>
      </trkpt>
      <trkpt lat="44.2921630" lon="-93.2667900">
        <ele>286.6100000</ele>
        <time>2009-07-12T19:00:33Z</time>
      </trkpt>
      <trkpt lat="44.2921860" lon="-93.2667910">
        <ele>286.6100000</ele>
        <time>2009-07-12T19:00:34Z</time>
      </trkpt>
      <trkpt lat="44.2925050" lon="-93.2665180">
        <ele>287.0900000</ele>
        <time>2009-07-12T19:00:35Z</time>
      </trkpt>
      <trkpt lat="44.2925070" lon="-93.2664480">
        <ele>287.5700000</ele>
        <time>2009-07-12T19:00:36Z</time>
      </trkpt>
      <trkpt lat="44.2925090" lon="-93.2663710">
        <ele>288.5300000</ele>
        <time>2009-07-12T19:00:37Z</time>
      </trkpt>
      <trkpt lat="44.2925160" lon="-93.2660840">
        <ele>292.3800000</ele>
        <time>2009-07-12T19:00:42Z</time>
      </trkpt>
      <trkpt lat="44.2922350" lon="-93.2667930">
        <ele>291.9000000</ele>
        <time>2009-07-12T19:00:43Z</time>
      </trkpt>
      <trkpt lat="44.2923070" lon="-93.2667960">
        <ele>291.4200000</ele>
        <time>2009-07-12T19:00:44Z</time>
      </trkpt>
      <trkpt lat="44.2923820" lon="-93.2667980">
        <ele>291.4200000</ele>
        <time>2009-07-12T19:00:45Z</time>
      </trkpt>
      <trkpt lat="44.2924500" lon="-93.2668010">
        <ele>290.9400000</ele>
        <time>2009-07-12T19:00:46Z</time>
      </trkpt>
      <trkpt lat="44.2925100" lon="-93.2663190">
        <ele>290.4600000</ele>
        <time>2009-07-12T19:00:49Z</time>
      </trkpt>
      <trkpt lat="44.2925110" lon="-93.2662720">
        <ele>290.4600000</ele>
        <time>2009-07-12T19:00:50Z</time>
      </trkpt>
      <trkpt lat="44.2925130" lon="-93.2662250">
        <ele>289.9700000</ele>
        <time>2009-07-12T19:00:51Z</time>
      </trkpt>
      <trkpt lat="44.2925140" lon="-93.2661650">
        <ele>289.9700000</ele>
        <time>2009-07-12T19:00:52Z</time>
      </trkpt>
      <trkpt lat="44.2925160" lon="-93.2661000">
        <ele>289.9700000</ele>
        <time>2009-07-12T19:00:53Z</time>
      </trkpt>
      <trkpt lat="44.2925170" lon="-93.2660420">
        <ele>289.9700000</ele>
        <time>2009-07-12T19:00:54Z</time>
      </trkpt>
      <trkpt lat="44.2926750" lon="-93.2668090">
        <ele>289.4900000</ele>
        <time>2009-07-12T19:00:55Z</time>
      </trkpt>
      <trkpt lat="44.2927210" lon="-93.2668110">
        <ele>289.4900000</ele>
        <time>2009-07-12T19:00:56Z</time>
      </trkpt>
      <trkpt lat="44.2927590" lon="-93.2668120">
        <ele>289.4900000</ele>
        <time>2009-07-12T19:00:57Z</time>
      </trkpt>
      <trkpt lat="44.2927990" lon="-93.2668140">
        <ele>290.4600000</ele>
        <time>2009-07-12T19:00:58Z</time>
      </trkpt>
      <trkpt lat="44.2928510" lon="-93.2668160">
        <ele>290.9400000</ele>
        <time>2009-07-12T19:00:59Z</time>
      </trkpt>
      <trkpt lat="44.2929150" lon="-93.2668180">
        <ele>290.9400000</ele>
        <time>2009-07-12T19:01:00Z</time>
      </trkpt>
    </trkseg>
  </trk>

</gpx>
